DLH23R LPPR-FNLU
Flight info
| Callsign | DLH23R |
|---|---|
| Flight time | 7h 3m |
| Altitude | 23000 |
| Route | PESUL UN726 ABETO/N0477F390 DCT LASIB M744 MGA N493 BERUM DCT ARIAM UM999 MNA UA604 EREBO/N0483F410 UA604 AS DCT MOLIT UA604 KAN DCT OBUDU DCT DLA DCT ARASI UG861 MOVOD DCT RASOP DCT LIKAD UR526 VNA |
| Aircraft | A359/H-SDE2E3GHIJ3J4J5LM1ORWXY/LB1D1 |
Departure
| Time | 2026-04-22 01:21 |
|---|---|
| Airport | Francisco de Sá Carneiro Airport (LPPR) |
Arrival
| Time | 2026-04-22 08:24 |
|---|---|
| Airport | Quatro de Fevereiro International Airport (FNLU) |
| Time | Latitude | Longitude | Altitude | Speed | Heading |
|---|---|---|---|---|---|
| 2026-04-22 01:15 | 41.23331 | -8.67387 | 243 ft | 3 kts | 258° |
| 2026-04-22 01:15 | 41.23328 | -8.67445 | 243 ft | 10 kts | 266° |
| 2026-04-22 01:16 | 41.23315 | -8.67552 | 243 ft | 4 kts | 259° |
| 2026-04-22 01:19 | 41.23314 | -8.67555 | 243 ft | 1 kts | 258° |
| 2026-04-22 01:19 | 41.23309 | -8.67588 | 243 ft | 6 kts | 258° |
| 2026-04-22 01:19 | 41.23302 | -8.67665 | 244 ft | 10 kts | 275° |
| 2026-04-22 01:19 | 41.23352 | -8.67738 | 245 ft | 13 kts | 334° |
| 2026-04-22 01:20 | 41.23507 | -8.67785 | 239 ft | 49 kts | 349° |
| 2026-04-22 01:20 | 41.24065 | -8.67929 | 222 ft | 113 kts | 349° |
| 2026-04-22 01:20 | 41.25022 | -8.68188 | 204 ft | 166 kts | 347° |
| 2026-04-22 01:20 | 41.26194 | -8.68475 | 775 ft | 165 kts | 349° |
| 2026-04-22 01:21 | 41.27325 | -8.68698 | 1486 ft | 166 kts | 351° |
| 2026-04-22 01:21 | 41.28525 | -8.68959 | 1726 ft | 186 kts | 348° |
| 2026-04-22 01:21 | 41.29850 | -8.69346 | 1966 ft | 204 kts | 346° |
| 2026-04-22 01:21 | 41.31298 | -8.69774 | 2253 ft | 221 kts | 346° |
| 2026-04-22 01:22 | 41.32843 | -8.70206 | 2627 ft | 235 kts | 347° |
| 2026-04-22 01:22 | 41.34518 | -8.70662 | 2868 ft | 256 kts | 347° |
| 2026-04-22 01:22 | 41.36304 | -8.71138 | 3365 ft | 266 kts | 347° |
| 2026-04-22 01:22 | 41.38146 | -8.71617 | 3914 ft | 273 kts | 347° |
| 2026-04-22 01:23 | 41.40049 | -8.71729 | 4450 ft | 283 kts | 8° |
| 2026-04-22 01:23 | 41.41847 | -8.70670 | 5028 ft | 288 kts | 41° |
| 2026-04-22 01:23 | 41.43028 | -8.68551 | 5637 ft | 285 kts | 72° |
| 2026-04-22 01:23 | 41.43527 | -8.66006 | 6275 ft | 284 kts | 84° |
| 2026-04-22 01:24 | 41.43853 | -8.63395 | 6841 ft | 287 kts | 87° |
| 2026-04-22 01:24 | 41.43742 | -8.60769 | 7392 ft | 281 kts | 111° |
| 2026-04-22 01:24 | 41.42817 | -8.58543 | 7970 ft | 272 kts | 138° |
| 2026-04-22 01:24 | 41.41365 | -8.56999 | 8576 ft | 267 kts | 152° |
| 2026-04-22 01:25 | 41.39781 | -8.55671 | 9184 ft | 270 kts | 153° |
| 2026-04-22 01:25 | 41.38202 | -8.54343 | 9705 ft | 273 kts | 153° |
| 2026-04-22 01:25 | 41.36576 | -8.52958 | 9899 ft | 275 kts | 153° |
| 2026-04-22 01:25 | 41.34986 | -8.51592 | 9915 ft | 276 kts | 152° |
| 2026-04-22 01:26 | 41.33367 | -8.50199 | 9913 ft | 277 kts | 152° |
| 2026-04-22 01:26 | 41.31750 | -8.48804 | 9993 ft | 279 kts | 152° |
| 2026-04-22 01:26 | 41.30080 | -8.47370 | 10167 ft | 293 kts | 152° |
| 2026-04-22 01:26 | 41.28322 | -8.45863 | 10393 ft | 307 kts | 152° |
| 2026-04-22 01:27 | 41.26488 | -8.44288 | 10639 ft | 321 kts | 152° |
| 2026-04-22 01:27 | 41.24577 | -8.42645 | 10869 ft | 333 kts | 152° |
| 2026-04-22 01:27 | 41.22597 | -8.40939 | 11135 ft | 344 kts | 152° |
| 2026-04-22 01:27 | 41.20574 | -8.39197 | 11529 ft | 349 kts | 152° |
| 2026-04-22 01:28 | 41.18527 | -8.37433 | 11993 ft | 353 kts | 152° |
| 2026-04-22 01:28 | 41.16454 | -8.35651 | 12432 ft | 357 kts | 152° |
| 2026-04-22 01:28 | 41.14359 | -8.33851 | 12853 ft | 360 kts | 152° |
| 2026-04-22 01:28 | 41.12245 | -8.32037 | 13307 ft | 364 kts | 152° |
| 2026-04-22 01:29 | 41.10109 | -8.30205 | 13764 ft | 366 kts | 152° |
| 2026-04-22 01:29 | 41.07959 | -8.28359 | 14170 ft | 369 kts | 152° |
| 2026-04-22 01:29 | 41.05796 | -8.26508 | 14572 ft | 371 kts | 152° |
| 2026-04-22 01:29 | 41.03617 | -8.24647 | 15004 ft | 373 kts | 152° |
| 2026-04-22 01:30 | 41.01460 | -8.22808 | 15425 ft | 375 kts | 152° |
| 2026-04-22 01:30 | 40.99259 | -8.20931 | 15850 ft | 377 kts | 152° |
| 2026-04-22 01:30 | 40.97044 | -8.19044 | 16257 ft | 380 kts | 152° |
| 2026-04-22 01:30 | 40.94818 | -8.17144 | 16672 ft | 382 kts | 152° |
| 2026-04-22 01:31 | 40.92576 | -8.15235 | 17105 ft | 384 kts | 153° |
| 2026-04-22 01:31 | 40.90317 | -8.13338 | 17519 ft | 385 kts | 154° |
| 2026-04-22 01:31 | 40.88754 | -8.12256 | 17783 ft | 382 kts | 162° |
| 2026-04-22 01:31 | 40.86235 | -8.11246 | 18209 ft | 376 kts | 174° |
| 2026-04-22 01:32 | 40.83650 | -8.10707 | 18583 ft | 376 kts | 177° |
| 2026-04-22 01:32 | 40.81039 | -8.10346 | 18911 ft | 379 kts | 179° |
| 2026-04-22 01:32 | 40.78402 | -8.10058 | 19269 ft | 380 kts | 180° |
| 2026-04-22 01:32 | 40.75762 | -8.09784 | 19598 ft | 383 kts | 180° |
| 2026-04-22 01:33 | 40.73095 | -8.09494 | 19923 ft | 386 kts | 179° |
| 2026-04-22 01:33 | 40.70411 | -8.09178 | 20238 ft | 388 kts | 179° |
| 2026-04-22 01:33 | 40.67710 | -8.08840 | 20561 ft | 391 kts | 179° |
| 2026-04-22 01:33 | 40.65005 | -8.08493 | 20888 ft | 392 kts | 179° |
| 2026-04-22 01:34 | 40.62280 | -8.08141 | 21183 ft | 395 kts | 179° |
| 2026-04-22 01:34 | 40.59533 | -8.07786 | 21493 ft | 398 kts | 179° |
| 2026-04-22 01:34 | 40.56766 | -8.07428 | 21799 ft | 400 kts | 179° |
| 2026-04-22 01:34 | 40.53989 | -8.07068 | 22099 ft | 402 kts | 179° |
| 2026-04-22 01:35 | 40.51198 | -8.06707 | 22418 ft | 404 kts | 179° |
| 2026-04-22 01:35 | 40.48389 | -8.06344 | 22711 ft | 407 kts | 179° |
| 2026-04-22 01:35 | 40.45561 | -8.05979 | 22997 ft | 409 kts | 179° |
| 2026-04-22 01:35 | 40.42728 | -8.05414 | 23286 ft | 415 kts | 172° |
| 2026-04-22 01:36 | 40.39905 | -8.04550 | 23563 ft | 418 kts | 171° |
| 2026-04-22 01:36 | 40.37114 | -8.03600 | 23799 ft | 421 kts | 169° |
| 2026-04-22 01:36 | 40.34281 | -8.02583 | 24047 ft | 423 kts | 169° |
| 2026-04-22 01:36 | 40.31440 | -8.01543 | 24297 ft | 425 kts | 169° |
| 2026-04-22 01:37 | 40.28585 | -8.00494 | 24547 ft | 427 kts | 169° |
| 2026-04-22 01:37 | 40.25716 | -7.99447 | 24763 ft | 429 kts | 169° |
| 2026-04-22 01:37 | 40.22829 | -7.98400 | 25013 ft | 431 kts | 169° |
| 2026-04-22 01:37 | 40.19947 | -7.97300 | 25254 ft | 433 kts | 166° |
| 2026-04-22 01:38 | 40.17051 | -7.96124 | 25498 ft | 435 kts | 166° |
| 2026-04-22 01:38 | 40.14149 | -7.94956 | 25746 ft | 437 kts | 166° |
| 2026-04-22 01:38 | 40.11232 | -7.93820 | 25964 ft | 439 kts | 167° |
| 2026-04-22 01:38 | 40.08288 | -7.92717 | 26218 ft | 440 kts | 167° |
| 2026-04-22 01:39 | 40.05341 | -7.91645 | 26476 ft | 441 kts | 168° |
| 2026-04-22 01:39 | 40.02367 | -7.90582 | 26741 ft | 443 kts | 168° |
| 2026-04-22 01:39 | 39.99387 | -7.89525 | 26978 ft | 445 kts | 168° |
| 2026-04-22 01:39 | 39.96393 | -7.88465 | 27231 ft | 447 kts | 168° |
| 2026-04-22 01:40 | 39.93388 | -7.87401 | 27492 ft | 448 kts | 168° |
| 2026-04-22 01:40 | 39.90370 | -7.86331 | 27786 ft | 451 kts | 168° |
| 2026-04-22 01:40 | 39.87330 | -7.85254 | 28206 ft | 454 kts | 168° |
| 2026-04-22 01:40 | 39.84266 | -7.84166 | 28640 ft | 457 kts | 168° |
| 2026-04-22 01:41 | 39.81189 | -7.83072 | 29072 ft | 460 kts | 168° |
| 2026-04-22 01:41 | 39.78129 | -7.81983 | 29476 ft | 463 kts | 168° |
| 2026-04-22 01:41 | 39.75008 | -7.80877 | 29877 ft | 466 kts | 168° |
| 2026-04-22 01:41 | 39.71859 | -7.79762 | 30223 ft | 469 kts | 168° |
| 2026-04-22 01:42 | 39.68699 | -7.78645 | 30547 ft | 472 kts | 168° |
| 2026-04-22 01:42 | 39.65524 | -7.77524 | 30872 ft | 474 kts | 168° |
| 2026-04-22 01:42 | 39.62326 | -7.76397 | 31188 ft | 477 kts | 168° |
| 2026-04-22 01:42 | 39.59108 | -7.75263 | 31481 ft | 479 kts | 168° |
| 2026-04-22 01:43 | 39.55887 | -7.74129 | 31765 ft | 481 kts | 168° |
| 2026-04-22 01:43 | 39.52647 | -7.72988 | 32047 ft | 484 kts | 168° |
| 2026-04-22 01:43 | 39.49427 | -7.71856 | 32317 ft | 486 kts | 168° |
| 2026-04-22 01:43 | 39.46157 | -7.70708 | 32582 ft | 488 kts | 168° |
| 2026-04-22 01:44 | 39.42838 | -7.69544 | 32896 ft | 488 kts | 167° |
| 2026-04-22 01:44 | 39.39598 | -7.68408 | 33299 ft | 487 kts | 167° |
| 2026-04-22 01:44 | 39.36333 | -7.67263 | 33660 ft | 486 kts | 167° |
| 2026-04-22 01:44 | 39.33062 | -7.66118 | 33993 ft | 486 kts | 167° |
| 2026-04-22 01:45 | 39.29797 | -7.64975 | 34288 ft | 486 kts | 167° |
| 2026-04-22 01:45 | 39.26541 | -7.63838 | 34586 ft | 485 kts | 167° |
| 2026-04-22 01:45 | 39.23278 | -7.62699 | 34881 ft | 485 kts | 167° |
| 2026-04-22 01:45 | 39.20023 | -7.61565 | 35167 ft | 484 kts | 167° |
| 2026-04-22 01:46 | 39.16773 | -7.60434 | 35452 ft | 483 kts | 167° |
| 2026-04-22 01:46 | 39.13527 | -7.59306 | 35728 ft | 483 kts | 167° |
| 2026-04-22 01:46 | 39.10283 | -7.58181 | 35990 ft | 482 kts | 167° |
| 2026-04-22 01:46 | 39.07035 | -7.57057 | 36236 ft | 482 kts | 167° |
| 2026-04-22 01:47 | 39.03800 | -7.55939 | 36483 ft | 482 kts | 167° |
| 2026-04-22 01:47 | 39.00561 | -7.54822 | 36718 ft | 482 kts | 167° |
| 2026-04-22 01:47 | 38.97327 | -7.53708 | 36962 ft | 481 kts | 167° |
| 2026-04-22 01:47 | 38.94093 | -7.52595 | 37206 ft | 481 kts | 167° |
| 2026-04-22 01:48 | 38.90864 | -7.51485 | 37443 ft | 480 kts | 167° |
| 2026-04-22 01:48 | 38.87629 | -7.50374 | 37654 ft | 480 kts | 167° |
| 2026-04-22 01:48 | 38.84447 | -7.49283 | 37859 ft | 480 kts | 167° |
| 2026-04-22 01:48 | 38.81212 | -7.48173 | 37939 ft | 482 kts | 167° |
| 2026-04-22 01:49 | 38.74725 | -7.45946 | 37943 ft | 482 kts | 167° |
| 2026-04-22 01:49 | 38.68234 | -7.43719 | 37954 ft | 483 kts | 167° |
| 2026-04-22 01:50 | 38.61739 | -7.41495 | 37952 ft | 483 kts | 167° |
| 2026-04-22 01:50 | 38.55240 | -7.39275 | 37941 ft | 483 kts | 167° |
| 2026-04-22 01:51 | 38.48734 | -7.37055 | 37942 ft | 484 kts | 167° |
| 2026-04-22 01:51 | 38.42266 | -7.34852 | 37949 ft | 484 kts | 167° |
| 2026-04-22 01:52 | 38.35719 | -7.32629 | 37942 ft | 484 kts | 167° |
| 2026-04-22 01:52 | 38.29248 | -7.30435 | 37950 ft | 484 kts | 167° |
| 2026-04-22 01:53 | 38.22734 | -7.28229 | 37951 ft | 485 kts | 167° |
| 2026-04-22 01:53 | 38.16219 | -7.26028 | 37948 ft | 485 kts | 167° |
| 2026-04-22 01:54 | 38.09850 | -7.23189 | 37952 ft | 489 kts | 152° |
| 2026-04-22 01:54 | 38.07055 | -7.20702 | 37946 ft | 494 kts | 139° |
| 2026-04-22 01:54 | 38.04762 | -7.17445 | 37947 ft | 498 kts | 125° |
| 2026-04-22 01:55 | 38.03132 | -7.13557 | 37950 ft | 502 kts | 110° |
| 2026-04-22 01:55 | 38.02196 | -7.09274 | 37932 ft | 504 kts | 102° |
| 2026-04-22 01:55 | 37.99585 | -7.01028 | 37953 ft | 506 kts | 122° |
| 2026-04-22 01:56 | 37.95572 | -6.93698 | 37953 ft | 506 kts | 121° |
| 2026-04-22 01:56 | 37.92045 | -6.85980 | 37953 ft | 507 kts | 120° |
| 2026-04-22 01:57 | 37.88587 | -6.78173 | 37951 ft | 508 kts | 120° |
| 2026-04-22 01:57 | 37.85166 | -6.70367 | 37954 ft | 508 kts | 119° |
| 2026-04-22 01:58 | 37.81744 | -6.62574 | 37952 ft | 508 kts | 119° |
| 2026-04-22 01:58 | 37.78282 | -6.54721 | 37952 ft | 508 kts | 120° |
| 2026-04-22 01:59 | 37.74860 | -6.46981 | 37953 ft | 508 kts | 120° |
| 2026-04-22 01:59 | 37.71406 | -6.39190 | 37954 ft | 508 kts | 120° |
| 2026-04-22 02:00 | 37.67952 | -6.31415 | 37955 ft | 508 kts | 120° |
| 2026-04-22 02:00 | 37.64483 | -6.23615 | 37955 ft | 508 kts | 120° |
| 2026-04-22 02:01 | 37.61015 | -6.15863 | 37954 ft | 507 kts | 120° |
| 2026-04-22 02:01 | 37.57541 | -6.08121 | 37957 ft | 507 kts | 120° |
| 2026-04-22 02:02 | 37.54067 | -6.00391 | 37961 ft | 507 kts | 120° |
| 2026-04-22 02:02 | 37.50613 | -5.92716 | 37964 ft | 507 kts | 120° |
| 2026-04-22 02:03 | 37.47107 | -5.84947 | 37962 ft | 507 kts | 120° |
| 2026-04-22 02:03 | 37.43636 | -5.77275 | 37965 ft | 507 kts | 120° |
| 2026-04-22 02:04 | 37.38425 | -5.65682 | 37962 ft | 508 kts | 119° |
| 2026-04-22 02:05 | 37.34959 | -5.57948 | 37962 ft | 508 kts | 119° |
| 2026-04-22 02:05 | 37.31502 | -5.50260 | 37963 ft | 508 kts | 119° |
| 2026-04-22 02:06 | 37.28018 | -5.42535 | 37962 ft | 508 kts | 119° |
| 2026-04-22 02:06 | 37.24526 | -5.34815 | 37961 ft | 508 kts | 119° |
| 2026-04-22 02:07 | 37.21026 | -5.27093 | 37957 ft | 509 kts | 119° |
| 2026-04-22 02:07 | 37.17520 | -5.19377 | 37957 ft | 509 kts | 119° |
| 2026-04-22 02:08 | 37.14010 | -5.11667 | 37955 ft | 509 kts | 119° |
| 2026-04-22 02:08 | 37.10491 | -5.03958 | 37953 ft | 510 kts | 119° |
| 2026-04-22 02:09 | 37.06962 | -4.96247 | 37951 ft | 510 kts | 119° |
| 2026-04-22 02:09 | 37.03487 | -4.88502 | 37945 ft | 510 kts | 117° |
| 2026-04-22 02:10 | 37.00223 | -4.80631 | 37944 ft | 510 kts | 116° |
| 2026-04-22 02:10 | 36.96989 | -4.72790 | 37943 ft | 510 kts | 116° |
| 2026-04-22 02:11 | 36.93690 | -4.64914 | 37938 ft | 510 kts | 116° |
| 2026-04-22 02:11 | 36.90373 | -4.57072 | 37938 ft | 510 kts | 116° |
| 2026-04-22 02:12 | 36.87046 | -4.49233 | 37937 ft | 510 kts | 116° |
| 2026-04-22 02:12 | 36.83715 | -4.41410 | 37935 ft | 510 kts | 116° |
| 2026-04-22 02:13 | 36.79542 | -4.34269 | 37947 ft | 511 kts | 134° |
| 2026-04-22 02:13 | 36.74477 | -4.28073 | 37937 ft | 509 kts | 136° |
| 2026-04-22 02:14 | 36.69294 | -4.22045 | 37936 ft | 510 kts | 136° |
| 2026-04-22 02:14 | 36.64135 | -4.16069 | 37932 ft | 510 kts | 136° |
| 2026-04-22 02:15 | 36.58959 | -4.10043 | 37933 ft | 510 kts | 136° |
| 2026-04-22 02:15 | 36.53774 | -4.03998 | 37934 ft | 510 kts | 136° |
| 2026-04-22 02:16 | 36.48583 | -3.97955 | 37932 ft | 510 kts | 136° |
| 2026-04-22 02:16 | 36.43394 | -3.91928 | 37933 ft | 511 kts | 136° |
| 2026-04-22 02:17 | 36.38233 | -3.85945 | 37937 ft | 511 kts | 136° |
| 2026-04-22 02:17 | 36.33029 | -3.79924 | 37938 ft | 511 kts | 136° |
| 2026-04-22 02:18 | 36.27827 | -3.73916 | 37939 ft | 510 kts | 136° |
| 2026-04-22 02:18 | 36.22627 | -3.67922 | 37943 ft | 510 kts | 136° |
| 2026-04-22 02:19 | 36.18310 | -3.62955 | 37954 ft | 510 kts | 136° |
| 2026-04-22 02:19 | 36.13106 | -3.56979 | 37950 ft | 509 kts | 136° |
| 2026-04-22 02:20 | 36.07946 | -3.51065 | 37955 ft | 509 kts | 136° |
| 2026-04-22 02:20 | 36.02748 | -3.45116 | 37957 ft | 508 kts | 137° |
| 2026-04-22 02:21 | 35.97561 | -3.39193 | 37958 ft | 507 kts | 137° |
| 2026-04-22 02:21 | 35.92377 | -3.33285 | 37960 ft | 507 kts | 137° |
| 2026-04-22 02:22 | 35.87187 | -3.27378 | 37958 ft | 506 kts | 137° |
| 2026-04-22 02:22 | 35.81796 | -3.21811 | 37961 ft | 506 kts | 144° |
| 2026-04-22 02:23 | 35.76100 | -3.16853 | 37956 ft | 503 kts | 146° |
| 2026-04-22 02:23 | 35.70342 | -3.11980 | 37951 ft | 502 kts | 146° |
| 2026-04-22 02:24 | 35.64583 | -3.07123 | 37953 ft | 502 kts | 146° |
| 2026-04-22 02:24 | 35.58833 | -3.02264 | 37954 ft | 501 kts | 146° |
| 2026-04-22 02:25 | 35.53095 | -2.97414 | 37953 ft | 500 kts | 146° |
| 2026-04-22 02:25 | 35.47351 | -2.92569 | 37959 ft | 500 kts | 146° |
| 2026-04-22 02:26 | 35.41610 | -2.87735 | 37963 ft | 500 kts | 146° |
| 2026-04-22 02:26 | 35.35875 | -2.82914 | 37963 ft | 500 kts | 147° |
| 2026-04-22 02:27 | 35.30137 | -2.78100 | 37961 ft | 499 kts | 147° |
| 2026-04-22 02:27 | 35.24442 | -2.73330 | 37957 ft | 499 kts | 147° |
| 2026-04-22 02:28 | 35.18712 | -2.68539 | 37951 ft | 498 kts | 147° |
| 2026-04-22 02:28 | 35.12991 | -2.63762 | 37950 ft | 497 kts | 147° |
| 2026-04-22 02:29 | 35.07281 | -2.59004 | 37951 ft | 497 kts | 147° |
| 2026-04-22 02:29 | 35.01564 | -2.54249 | 37950 ft | 496 kts | 147° |
| 2026-04-22 02:30 | 34.95862 | -2.49512 | 37950 ft | 495 kts | 147° |
| 2026-04-22 02:30 | 34.90159 | -2.44783 | 37949 ft | 495 kts | 147° |
| 2026-04-22 02:31 | 34.84464 | -2.40070 | 37954 ft | 495 kts | 148° |
| 2026-04-22 02:31 | 34.78805 | -2.35396 | 37949 ft | 494 kts | 148° |
| 2026-04-22 02:32 | 34.73105 | -2.30697 | 37945 ft | 494 kts | 148° |
| 2026-04-22 02:32 | 34.67408 | -2.26006 | 37966 ft | 494 kts | 148° |
| 2026-04-22 02:33 | 34.61715 | -2.21326 | 37962 ft | 494 kts | 148° |
| 2026-04-22 02:33 | 34.56020 | -2.16651 | 37962 ft | 494 kts | 148° |
| 2026-04-22 02:34 | 34.50360 | -2.12011 | 37970 ft | 494 kts | 148° |
| 2026-04-22 02:34 | 34.44666 | -2.07356 | 37969 ft | 494 kts | 148° |
| 2026-04-22 02:35 | 34.38961 | -2.02700 | 37973 ft | 494 kts | 148° |
| 2026-04-22 02:35 | 34.33260 | -1.98053 | 37981 ft | 493 kts | 148° |
| 2026-04-22 02:36 | 34.27560 | -1.93416 | 37981 ft | 493 kts | 148° |
| 2026-04-22 02:36 | 34.21867 | -1.88790 | 37983 ft | 493 kts | 148° |
| 2026-04-22 02:37 | 34.16170 | -1.84170 | 37990 ft | 493 kts | 148° |
| 2026-04-22 02:37 | 34.10469 | -1.79554 | 37988 ft | 493 kts | 148° |
| 2026-04-22 02:38 | 34.04810 | -1.74978 | 37990 ft | 492 kts | 148° |
| 2026-04-22 02:38 | 33.99119 | -1.70385 | 37996 ft | 492 kts | 148° |
| 2026-04-22 02:39 | 33.93439 | -1.65807 | 37994 ft | 491 kts | 148° |
| 2026-04-22 02:39 | 33.88109 | -1.60653 | 37996 ft | 495 kts | 134° |
| 2026-04-22 02:40 | 33.83567 | -1.54371 | 37999 ft | 499 kts | 131° |
| 2026-04-22 02:40 | 33.79164 | -1.47903 | 37997 ft | 499 kts | 131° |
| 2026-04-22 02:41 | 33.74766 | -1.41435 | 37998 ft | 499 kts | 131° |
| 2026-04-22 02:41 | 33.70346 | -1.35001 | 37994 ft | 499 kts | 131° |
| 2026-04-22 02:42 | 33.65935 | -1.28619 | 37999 ft | 499 kts | 131° |
| 2026-04-22 02:42 | 33.61495 | -1.22212 | 37995 ft | 499 kts | 131° |
| 2026-04-22 02:43 | 33.57054 | -1.15811 | 37999 ft | 499 kts | 131° |
| 2026-04-22 02:43 | 33.52609 | -1.09417 | 38003 ft | 498 kts | 131° |
| 2026-04-22 02:44 | 33.48166 | -1.03034 | 37996 ft | 498 kts | 131° |
| 2026-04-22 02:44 | 33.43729 | -0.96671 | 38003 ft | 497 kts | 131° |
| 2026-04-22 02:45 | 33.39313 | -0.90350 | 38009 ft | 496 kts | 131° |
| 2026-04-22 02:45 | 33.34885 | -0.84022 | 38004 ft | 496 kts | 131° |
| 2026-04-22 02:46 | 33.30460 | -0.77711 | 38019 ft | 495 kts | 131° |
| 2026-04-22 02:46 | 33.26027 | -0.71398 | 38017 ft | 495 kts | 131° |
| 2026-04-22 02:47 | 33.21601 | -0.65107 | 38020 ft | 495 kts | 131° |
| 2026-04-22 02:47 | 33.17192 | -0.58850 | 38017 ft | 495 kts | 131° |
| 2026-04-22 02:48 | 33.12751 | -0.52559 | 38017 ft | 494 kts | 131° |
| 2026-04-22 02:48 | 33.08312 | -0.46282 | 38016 ft | 494 kts | 132° |
| 2026-04-22 02:49 | 33.03873 | -0.40013 | 38014 ft | 494 kts | 132° |
| 2026-04-22 02:49 | 32.99471 | -0.33809 | 38012 ft | 493 kts | 132° |
| 2026-04-22 02:50 | 32.95048 | -0.27586 | 38009 ft | 492 kts | 132° |
| 2026-04-22 02:50 | 32.90618 | -0.21364 | 38005 ft | 491 kts | 132° |
| 2026-04-22 02:51 | 32.86199 | -0.15168 | 38002 ft | 491 kts | 132° |
| 2026-04-22 02:51 | 32.81773 | -0.08973 | 38002 ft | 491 kts | 132° |
| 2026-04-22 02:52 | 32.77378 | -0.02833 | 37998 ft | 491 kts | 132° |
| 2026-04-22 02:52 | 32.72944 | 0.03352 | 37995 ft | 491 kts | 132° |
| 2026-04-22 02:53 | 32.68508 | 0.09531 | 37994 ft | 492 kts | 132° |
| 2026-04-22 02:53 | 32.64061 | 0.15714 | 37993 ft | 492 kts | 132° |
| 2026-04-22 02:54 | 32.59611 | 0.21893 | 37984 ft | 493 kts | 132° |
| 2026-04-22 02:54 | 32.55150 | 0.28075 | 37984 ft | 493 kts | 132° |
| 2026-04-22 02:55 | 32.50715 | 0.34212 | 37984 ft | 493 kts | 132° |
| 2026-04-22 02:55 | 32.46244 | 0.40388 | 37982 ft | 493 kts | 132° |
| 2026-04-22 02:56 | 32.41769 | 0.46557 | 37971 ft | 493 kts | 133° |
| 2026-04-22 02:56 | 32.37298 | 0.52713 | 37975 ft | 493 kts | 133° |
| 2026-04-22 02:57 | 32.32821 | 0.58867 | 37969 ft | 493 kts | 133° |
| 2026-04-22 02:57 | 32.28347 | 0.65005 | 37966 ft | 493 kts | 133° |
| 2026-04-22 02:58 | 32.23865 | 0.71145 | 37962 ft | 493 kts | 133° |
| 2026-04-22 02:58 | 32.19381 | 0.77278 | 37953 ft | 493 kts | 133° |
| 2026-04-22 02:59 | 32.14895 | 0.83402 | 37955 ft | 493 kts | 133° |
| 2026-04-22 02:59 | 32.10405 | 0.89522 | 37951 ft | 493 kts | 133° |
| 2026-04-22 03:00 | 32.05933 | 0.95606 | 37944 ft | 494 kts | 133° |
| 2026-04-22 03:00 | 32.01424 | 1.01733 | 37949 ft | 495 kts | 133° |
| 2026-04-22 03:01 | 31.96904 | 1.07864 | 37952 ft | 496 kts | 133° |
| 2026-04-22 03:01 | 31.92370 | 1.14002 | 37943 ft | 497 kts | 133° |
| 2026-04-22 03:02 | 31.87686 | 1.19975 | 37948 ft | 495 kts | 140° |
| 2026-04-22 03:02 | 31.82606 | 1.25357 | 37941 ft | 494 kts | 141° |
| 2026-04-22 03:03 | 31.77428 | 1.30676 | 37939 ft | 494 kts | 141° |
| 2026-04-22 03:03 | 31.72243 | 1.35977 | 37938 ft | 494 kts | 141° |
| 2026-04-22 03:04 | 31.67064 | 1.41282 | 37935 ft | 494 kts | 141° |
| 2026-04-22 03:04 | 31.61886 | 1.46588 | 37932 ft | 494 kts | 141° |
| 2026-04-22 03:05 | 31.56915 | 1.52170 | 37926 ft | 496 kts | 134° |
| 2026-04-22 03:05 | 31.52356 | 1.58222 | 37941 ft | 498 kts | 133° |
| 2026-04-22 03:06 | 31.47825 | 1.64389 | 37937 ft | 499 kts | 133° |
| 2026-04-22 03:06 | 31.43284 | 1.70559 | 37929 ft | 499 kts | 133° |
| 2026-04-22 03:07 | 31.39510 | 1.75660 | 37926 ft | 499 kts | 133° |
| 2026-04-22 03:07 | 31.34954 | 1.81795 | 37927 ft | 499 kts | 133° |
| 2026-04-22 03:08 | 31.30385 | 1.87936 | 37921 ft | 499 kts | 133° |
| 2026-04-22 03:08 | 31.25822 | 1.94060 | 37923 ft | 499 kts | 133° |
| 2026-04-22 03:09 | 31.21287 | 2.00138 | 37923 ft | 499 kts | 133° |
| 2026-04-22 03:09 | 31.16721 | 2.06248 | 37922 ft | 499 kts | 133° |
| 2026-04-22 03:10 | 31.12152 | 2.12352 | 37927 ft | 499 kts | 133° |
| 2026-04-22 03:10 | 31.07573 | 2.18458 | 37918 ft | 499 kts | 133° |
| 2026-04-22 03:11 | 31.03001 | 2.24547 | 37919 ft | 499 kts | 133° |
| 2026-04-22 03:11 | 30.98430 | 2.30624 | 37915 ft | 498 kts | 133° |
| 2026-04-22 03:12 | 30.93852 | 2.36701 | 37911 ft | 498 kts | 134° |
| 2026-04-22 03:12 | 30.87017 | 2.45756 | 37907 ft | 498 kts | 134° |
| 2026-04-22 03:13 | 30.82435 | 2.51815 | 37919 ft | 498 kts | 134° |
| 2026-04-22 03:13 | 30.77852 | 2.57864 | 37922 ft | 498 kts | 134° |
| 2026-04-22 03:14 | 30.73259 | 2.63917 | 37932 ft | 498 kts | 134° |
| 2026-04-22 03:14 | 30.68670 | 2.69956 | 37929 ft | 498 kts | 134° |
| 2026-04-22 03:15 | 30.64103 | 2.75957 | 37957 ft | 499 kts | 134° |
| 2026-04-22 03:15 | 30.59451 | 2.81944 | 37968 ft | 497 kts | 138° |
| 2026-04-22 03:16 | 30.53942 | 2.86646 | 37961 ft | 488 kts | 156° |
| 2026-04-22 03:16 | 30.47639 | 2.89326 | 37968 ft | 480 kts | 166° |
| 2026-04-22 03:17 | 30.41211 | 2.91401 | 37945 ft | 479 kts | 168° |
| 2026-04-22 03:17 | 30.34810 | 2.93395 | 37926 ft | 479 kts | 167° |
| 2026-04-22 03:18 | 30.28366 | 2.95433 | 37901 ft | 479 kts | 167° |
| 2026-04-22 03:18 | 30.21909 | 2.97500 | 37878 ft | 480 kts | 167° |
| 2026-04-22 03:19 | 30.15517 | 2.99549 | 37880 ft | 480 kts | 167° |
| 2026-04-22 03:19 | 30.09070 | 3.01612 | 37879 ft | 481 kts | 167° |
| 2026-04-22 03:20 | 30.02617 | 3.03674 | 37876 ft | 481 kts | 167° |
| 2026-04-22 03:20 | 29.96162 | 3.05733 | 37872 ft | 481 kts | 167° |
| 2026-04-22 03:21 | 29.89707 | 3.07790 | 37873 ft | 482 kts | 167° |
| 2026-04-22 03:21 | 29.83271 | 3.09836 | 37870 ft | 482 kts | 168° |
| 2026-04-22 03:22 | 29.76807 | 3.11890 | 37872 ft | 482 kts | 168° |
| 2026-04-22 03:22 | 29.70329 | 3.13946 | 37870 ft | 482 kts | 168° |
| 2026-04-22 03:23 | 29.63850 | 3.15999 | 37865 ft | 482 kts | 168° |
| 2026-04-22 03:23 | 29.57371 | 3.18049 | 37863 ft | 483 kts | 168° |
| 2026-04-22 03:24 | 29.50928 | 3.20085 | 37860 ft | 483 kts | 168° |
| 2026-04-22 03:24 | 29.44401 | 3.22145 | 37862 ft | 483 kts | 168° |
| 2026-04-22 03:25 | 29.37949 | 3.24178 | 37859 ft | 484 kts | 168° |
| 2026-04-22 03:25 | 29.31459 | 3.26220 | 37861 ft | 484 kts | 168° |
| 2026-04-22 03:26 | 29.24955 | 3.28265 | 37855 ft | 484 kts | 168° |
| 2026-04-22 03:26 | 29.18436 | 3.30311 | 37855 ft | 485 kts | 168° |
| 2026-04-22 03:27 | 29.11926 | 3.32352 | 37854 ft | 485 kts | 168° |
| 2026-04-22 03:27 | 29.05400 | 3.34396 | 37849 ft | 486 kts | 168° |
| 2026-04-22 03:28 | 28.98878 | 3.36435 | 37853 ft | 486 kts | 168° |
| 2026-04-22 03:28 | 28.92349 | 3.38473 | 37851 ft | 487 kts | 168° |
| 2026-04-22 03:29 | 28.85862 | 3.40497 | 37852 ft | 487 kts | 168° |
| 2026-04-22 03:29 | 28.79316 | 3.42536 | 37856 ft | 487 kts | 168° |
| 2026-04-22 03:30 | 28.72773 | 3.44571 | 37853 ft | 487 kts | 168° |
| 2026-04-22 03:30 | 28.66231 | 3.46603 | 37850 ft | 487 kts | 168° |
| 2026-04-22 03:31 | 28.59685 | 3.48634 | 37851 ft | 488 kts | 168° |
| 2026-04-22 03:31 | 28.53139 | 3.50662 | 37843 ft | 488 kts | 168° |
| 2026-04-22 03:32 | 28.46592 | 3.52736 | 37846 ft | 489 kts | 167° |
| 2026-04-22 03:32 | 28.40090 | 3.55079 | 37845 ft | 490 kts | 166° |
| 2026-04-22 03:33 | 28.33638 | 3.57454 | 37841 ft | 490 kts | 166° |
| 2026-04-22 03:33 | 28.27127 | 3.59806 | 37838 ft | 491 kts | 166° |
| 2026-04-22 03:34 | 28.20602 | 3.62133 | 37840 ft | 491 kts | 166° |
| 2026-04-22 03:34 | 28.14076 | 3.64449 | 37839 ft | 491 kts | 166° |
| 2026-04-22 03:35 | 28.07590 | 3.66751 | 37832 ft | 491 kts | 166° |
| 2026-04-22 03:35 | 28.01067 | 3.69063 | 37840 ft | 491 kts | 166° |
| 2026-04-22 03:36 | 27.94524 | 3.71380 | 37829 ft | 491 kts | 166° |
| 2026-04-22 03:36 | 27.87991 | 3.73691 | 37824 ft | 492 kts | 166° |
| 2026-04-22 03:37 | 27.81489 | 3.75988 | 37823 ft | 492 kts | 167° |
| 2026-04-22 03:37 | 27.74942 | 3.78299 | 37823 ft | 493 kts | 167° |
| 2026-04-22 03:38 | 27.68389 | 3.80609 | 37823 ft | 493 kts | 167° |
| 2026-04-22 03:38 | 27.61834 | 3.82916 | 37821 ft | 493 kts | 167° |
| 2026-04-22 03:39 | 27.55319 | 3.85205 | 37823 ft | 493 kts | 167° |
| 2026-04-22 03:39 | 27.48766 | 3.87505 | 37821 ft | 494 kts | 167° |
| 2026-04-22 03:40 | 27.42199 | 3.89808 | 37818 ft | 494 kts | 167° |
| 2026-04-22 03:40 | 27.35630 | 3.92109 | 37822 ft | 494 kts | 167° |
| 2026-04-22 03:41 | 27.29063 | 3.94406 | 37824 ft | 494 kts | 167° |
| 2026-04-22 03:41 | 27.22486 | 3.96703 | 37820 ft | 494 kts | 167° |
| 2026-04-22 03:42 | 27.15959 | 3.98981 | 37821 ft | 494 kts | 167° |
| 2026-04-22 03:42 | 27.09348 | 4.01285 | 37821 ft | 494 kts | 167° |
| 2026-04-22 03:43 | 27.02814 | 4.03559 | 37820 ft | 494 kts | 167° |
| 2026-04-22 03:43 | 26.96247 | 4.05842 | 37821 ft | 494 kts | 167° |
| 2026-04-22 03:44 | 26.89685 | 4.08119 | 37820 ft | 493 kts | 167° |
| 2026-04-22 03:44 | 26.83124 | 4.10394 | 37821 ft | 493 kts | 167° |
| 2026-04-22 03:45 | 26.76561 | 4.12667 | 37820 ft | 493 kts | 167° |
| 2026-04-22 03:45 | 26.70004 | 4.14936 | 37823 ft | 493 kts | 167° |
| 2026-04-22 03:46 | 26.63447 | 4.17201 | 37824 ft | 493 kts | 167° |
| 2026-04-22 03:46 | 26.56927 | 4.19451 | 37824 ft | 493 kts | 167° |
| 2026-04-22 03:47 | 26.50361 | 4.21713 | 37821 ft | 493 kts | 167° |
| 2026-04-22 03:47 | 26.43810 | 4.23969 | 37830 ft | 493 kts | 167° |
| 2026-04-22 03:48 | 26.37257 | 4.26223 | 37831 ft | 493 kts | 167° |
| 2026-04-22 03:48 | 26.30731 | 4.28464 | 37835 ft | 493 kts | 167° |
| 2026-04-22 03:49 | 26.24155 | 4.30719 | 37840 ft | 494 kts | 167° |
| 2026-04-22 03:49 | 26.17582 | 4.32971 | 37840 ft | 494 kts | 167° |
| 2026-04-22 03:50 | 26.11005 | 4.35222 | 37848 ft | 495 kts | 168° |
| 2026-04-22 03:50 | 26.04421 | 4.37474 | 37860 ft | 495 kts | 168° |
| 2026-04-22 03:51 | 25.97824 | 4.39725 | 37870 ft | 495 kts | 168° |
| 2026-04-22 03:51 | 25.91274 | 4.41958 | 37882 ft | 496 kts | 168° |
| 2026-04-22 03:52 | 25.84682 | 4.44203 | 37889 ft | 496 kts | 168° |
| 2026-04-22 03:52 | 25.78085 | 4.46448 | 37889 ft | 496 kts | 168° |
| 2026-04-22 03:53 | 25.71480 | 4.48693 | 37895 ft | 497 kts | 168° |
| 2026-04-22 03:53 | 25.64873 | 4.50936 | 37898 ft | 496 kts | 168° |
| 2026-04-22 03:54 | 25.59341 | 4.52810 | 37908 ft | 496 kts | 168° |
| 2026-04-22 03:54 | 25.51671 | 4.55409 | 37914 ft | 496 kts | 168° |
| 2026-04-22 03:55 | 25.46177 | 4.57268 | 37912 ft | 497 kts | 168° |
| 2026-04-22 03:55 | 25.39559 | 4.59504 | 37911 ft | 497 kts | 168° |
| 2026-04-22 03:56 | 25.32952 | 4.61734 | 37908 ft | 496 kts | 168° |
| 2026-04-22 03:56 | 25.26341 | 4.63963 | 37906 ft | 496 kts | 168° |
| 2026-04-22 03:57 | 25.19726 | 4.66191 | 37897 ft | 497 kts | 168° |
| 2026-04-22 03:57 | 25.13107 | 4.68417 | 37896 ft | 497 kts | 168° |
| 2026-04-22 03:58 | 25.06528 | 4.70627 | 37893 ft | 497 kts | 168° |
| 2026-04-22 03:58 | 24.99903 | 4.72853 | 37888 ft | 498 kts | 169° |
| 2026-04-22 03:59 | 24.93265 | 4.75077 | 37889 ft | 498 kts | 169° |
| 2026-04-22 03:59 | 24.86630 | 4.77299 | 37884 ft | 498 kts | 169° |
| 2026-04-22 04:00 | 24.80005 | 4.79516 | 37886 ft | 497 kts | 169° |
| 2026-04-22 04:00 | 24.73418 | 4.81717 | 37895 ft | 497 kts | 169° |
| 2026-04-22 04:01 | 24.66783 | 4.83930 | 37893 ft | 497 kts | 169° |
| 2026-04-22 04:01 | 24.60163 | 4.86137 | 37895 ft | 497 kts | 169° |
| 2026-04-22 04:02 | 24.53546 | 4.88340 | 37895 ft | 496 kts | 169° |
| 2026-04-22 04:02 | 24.46934 | 4.90539 | 37903 ft | 497 kts | 169° |
| 2026-04-22 04:03 | 24.40358 | 4.92723 | 37911 ft | 497 kts | 170° |
| 2026-04-22 04:03 | 24.33746 | 4.94919 | 37908 ft | 496 kts | 170° |
| 2026-04-22 04:04 | 24.27122 | 4.97115 | 37907 ft | 496 kts | 170° |
| 2026-04-22 04:04 | 24.20544 | 4.99294 | 37914 ft | 496 kts | 170° |
| 2026-04-22 04:05 | 24.13943 | 5.01477 | 37914 ft | 496 kts | 170° |
| 2026-04-22 04:05 | 24.07333 | 5.03668 | 37915 ft | 496 kts | 170° |
| 2026-04-22 04:06 | 24.00732 | 5.05852 | 37923 ft | 495 kts | 171° |
| 2026-04-22 04:06 | 23.94140 | 5.08020 | 37916 ft | 495 kts | 171° |
| 2026-04-22 04:07 | 23.87545 | 5.10187 | 37914 ft | 494 kts | 171° |
| 2026-04-22 04:07 | 23.80957 | 5.12354 | 37919 ft | 494 kts | 171° |
| 2026-04-22 04:08 | 23.74400 | 5.14509 | 37920 ft | 495 kts | 171° |
| 2026-04-22 04:08 | 23.67799 | 5.16678 | 37921 ft | 495 kts | 171° |
| 2026-04-22 04:09 | 23.61198 | 5.18842 | 37922 ft | 495 kts | 171° |
| 2026-04-22 04:09 | 23.54599 | 5.21003 | 37923 ft | 495 kts | 171° |
| 2026-04-22 04:10 | 23.47992 | 5.23165 | 37926 ft | 495 kts | 171° |
| 2026-04-22 04:10 | 23.41383 | 5.25328 | 37932 ft | 496 kts | 172° |
| 2026-04-22 04:11 | 23.34772 | 5.27486 | 37938 ft | 495 kts | 172° |
| 2026-04-22 04:11 | 23.28204 | 5.29630 | 37941 ft | 495 kts | 172° |
| 2026-04-22 04:12 | 23.21600 | 5.31786 | 37960 ft | 495 kts | 172° |
| 2026-04-22 04:12 | 23.15003 | 5.33938 | 37965 ft | 495 kts | 172° |
| 2026-04-22 04:13 | 23.08391 | 5.36085 | 38011 ft | 495 kts | 172° |
| 2026-04-22 04:13 | 23.01791 | 5.38229 | 38055 ft | 495 kts | 172° |
| 2026-04-22 04:14 | 22.95195 | 5.40371 | 38093 ft | 495 kts | 172° |
| 2026-04-22 04:14 | 22.88591 | 5.42515 | 38129 ft | 495 kts | 172° |
| 2026-04-22 04:15 | 22.81992 | 5.44667 | 38132 ft | 497 kts | 171° |
| 2026-04-22 04:15 | 22.75471 | 5.47346 | 38127 ft | 502 kts | 167° |
| 2026-04-22 04:16 | 22.65765 | 5.51592 | 38082 ft | 504 kts | 167° |
| 2026-04-22 04:17 | 22.59263 | 5.54443 | 38038 ft | 504 kts | 167° |
| 2026-04-22 04:17 | 22.52757 | 5.57283 | 37987 ft | 504 kts | 167° |
| 2026-04-22 04:18 | 22.46245 | 5.60119 | 37948 ft | 504 kts | 167° |
| 2026-04-22 04:18 | 22.39726 | 5.62952 | 37945 ft | 505 kts | 167° |
| 2026-04-22 04:19 | 22.33203 | 5.65786 | 37954 ft | 505 kts | 167° |
| 2026-04-22 04:19 | 22.26723 | 5.68598 | 37938 ft | 506 kts | 167° |
| 2026-04-22 04:20 | 22.20191 | 5.71429 | 37936 ft | 506 kts | 167° |
| 2026-04-22 04:20 | 22.13650 | 5.74262 | 37927 ft | 506 kts | 167° |
| 2026-04-22 04:21 | 22.07102 | 5.77095 | 37928 ft | 507 kts | 167° |
| 2026-04-22 04:21 | 22.00550 | 5.79925 | 37927 ft | 507 kts | 167° |
| 2026-04-22 04:22 | 21.93992 | 5.82758 | 37923 ft | 508 kts | 167° |
| 2026-04-22 04:22 | 21.87428 | 5.85591 | 37925 ft | 508 kts | 168° |
| 2026-04-22 04:23 | 21.80864 | 5.88419 | 37923 ft | 508 kts | 168° |
| 2026-04-22 04:23 | 21.74292 | 5.91248 | 37918 ft | 508 kts | 168° |
| 2026-04-22 04:24 | 21.67768 | 5.94057 | 37903 ft | 510 kts | 169° |
| 2026-04-22 04:24 | 21.61113 | 5.96901 | 37916 ft | 519 kts | 169° |
| 2026-04-22 04:25 | 21.54372 | 5.99791 | 37909 ft | 521 kts | 169° |
| 2026-04-22 04:25 | 21.47637 | 6.02690 | 37908 ft | 521 kts | 169° |
| 2026-04-22 04:26 | 21.40896 | 6.05582 | 37906 ft | 522 kts | 169° |
| 2026-04-22 04:26 | 21.34157 | 6.08466 | 37903 ft | 522 kts | 169° |
| 2026-04-22 04:27 | 21.27411 | 6.11351 | 37906 ft | 522 kts | 169° |
| 2026-04-22 04:27 | 21.20657 | 6.14236 | 37899 ft | 522 kts | 169° |
| 2026-04-22 04:28 | 21.13951 | 6.17097 | 37907 ft | 522 kts | 169° |
| 2026-04-22 04:28 | 21.07188 | 6.19980 | 37897 ft | 522 kts | 168° |
| 2026-04-22 04:29 | 21.00435 | 6.22856 | 37897 ft | 522 kts | 168° |
| 2026-04-22 04:29 | 20.93678 | 6.25732 | 37890 ft | 523 kts | 168° |
| 2026-04-22 04:30 | 20.86919 | 6.28604 | 37891 ft | 523 kts | 168° |
| 2026-04-22 04:30 | 20.80156 | 6.31476 | 37889 ft | 523 kts | 168° |
| 2026-04-22 04:31 | 20.73405 | 6.34341 | 37884 ft | 522 kts | 168° |
| 2026-04-22 04:31 | 20.66642 | 6.37207 | 37885 ft | 522 kts | 168° |
| 2026-04-22 04:32 | 20.59934 | 6.40047 | 37881 ft | 522 kts | 168° |
| 2026-04-22 04:32 | 20.53181 | 6.42903 | 37886 ft | 522 kts | 168° |
| 2026-04-22 04:33 | 20.46421 | 6.45759 | 37876 ft | 522 kts | 168° |
| 2026-04-22 04:33 | 20.39670 | 6.48610 | 37894 ft | 521 kts | 168° |
| 2026-04-22 04:34 | 20.32930 | 6.51454 | 37886 ft | 521 kts | 168° |
| 2026-04-22 04:34 | 20.26191 | 6.54293 | 37879 ft | 521 kts | 168° |
| 2026-04-22 04:35 | 20.19496 | 6.57112 | 37883 ft | 520 kts | 168° |
| 2026-04-22 04:35 | 20.12752 | 6.59949 | 37883 ft | 520 kts | 168° |
| 2026-04-22 04:36 | 20.06042 | 6.62885 | 37881 ft | 523 kts | 166° |
| 2026-04-22 04:36 | 19.99364 | 6.66024 | 37880 ft | 524 kts | 165° |
| 2026-04-22 04:37 | 19.92683 | 6.69164 | 37884 ft | 524 kts | 166° |
| 2026-04-22 04:37 | 19.86041 | 6.72245 | 37887 ft | 524 kts | 166° |
| 2026-04-22 04:38 | 19.79351 | 6.75326 | 37884 ft | 523 kts | 166° |
| 2026-04-22 04:38 | 19.72658 | 6.78402 | 37887 ft | 523 kts | 166° |
| 2026-04-22 04:39 | 19.65963 | 6.81477 | 37888 ft | 524 kts | 166° |
| 2026-04-22 04:39 | 19.59262 | 6.84555 | 37886 ft | 524 kts | 166° |
| 2026-04-22 04:40 | 19.52605 | 6.87610 | 37887 ft | 525 kts | 166° |
| 2026-04-22 04:40 | 19.45899 | 6.90685 | 37887 ft | 525 kts | 166° |
| 2026-04-22 04:41 | 19.39182 | 6.93763 | 37886 ft | 525 kts | 166° |
| 2026-04-22 04:41 | 19.32471 | 6.96834 | 37884 ft | 526 kts | 166° |
| 2026-04-22 04:42 | 19.25787 | 6.99889 | 37885 ft | 526 kts | 166° |
| 2026-04-22 04:42 | 19.19060 | 7.02963 | 37886 ft | 527 kts | 166° |
| 2026-04-22 04:43 | 19.12323 | 7.06038 | 37883 ft | 527 kts | 166° |
| 2026-04-22 04:43 | 19.06719 | 7.08594 | 37881 ft | 527 kts | 166° |
| 2026-04-22 04:44 | 18.99980 | 7.11666 | 37886 ft | 527 kts | 166° |
| 2026-04-22 04:44 | 18.93235 | 7.14737 | 37876 ft | 527 kts | 166° |
| 2026-04-22 04:45 | 18.86493 | 7.17804 | 37879 ft | 527 kts | 166° |
| 2026-04-22 04:45 | 18.79751 | 7.20867 | 37880 ft | 527 kts | 166° |
| 2026-04-22 04:46 | 18.73019 | 7.23923 | 37881 ft | 526 kts | 165° |
| 2026-04-22 04:46 | 18.66330 | 7.26957 | 37878 ft | 526 kts | 165° |
| 2026-04-22 04:47 | 18.59599 | 7.30008 | 37879 ft | 526 kts | 165° |
| 2026-04-22 04:47 | 18.52875 | 7.33054 | 37877 ft | 525 kts | 165° |
| 2026-04-22 04:48 | 18.46155 | 7.36095 | 37881 ft | 525 kts | 165° |
| 2026-04-22 04:48 | 18.39438 | 7.39132 | 37888 ft | 525 kts | 165° |
| 2026-04-22 04:49 | 18.32734 | 7.42161 | 37881 ft | 524 kts | 165° |
| 2026-04-22 04:49 | 18.26071 | 7.45169 | 37882 ft | 523 kts | 165° |
| 2026-04-22 04:50 | 18.19367 | 7.48192 | 37888 ft | 524 kts | 165° |
| 2026-04-22 04:50 | 18.12665 | 7.51211 | 37881 ft | 524 kts | 165° |
| 2026-04-22 04:51 | 18.05960 | 7.54229 | 37884 ft | 524 kts | 165° |
| 2026-04-22 04:51 | 17.99259 | 7.57243 | 37880 ft | 524 kts | 165° |
| 2026-04-22 04:52 | 17.92550 | 7.60258 | 37885 ft | 524 kts | 165° |
| 2026-04-22 04:52 | 17.85886 | 7.63251 | 37885 ft | 524 kts | 165° |
| 2026-04-22 04:53 | 17.79177 | 7.66263 | 37883 ft | 524 kts | 165° |
| 2026-04-22 04:53 | 17.72464 | 7.69274 | 37885 ft | 523 kts | 165° |
| 2026-04-22 04:54 | 17.65769 | 7.72274 | 37885 ft | 522 kts | 165° |
| 2026-04-22 04:54 | 17.59089 | 7.75264 | 37883 ft | 521 kts | 165° |
| 2026-04-22 04:55 | 17.52462 | 7.78229 | 37883 ft | 520 kts | 165° |
| 2026-04-22 04:55 | 17.45803 | 7.81204 | 37880 ft | 520 kts | 164° |
| 2026-04-22 04:56 | 17.39148 | 7.84175 | 37879 ft | 519 kts | 164° |
| 2026-04-22 04:56 | 17.32501 | 7.87141 | 37880 ft | 519 kts | 164° |
| 2026-04-22 04:57 | 17.25860 | 7.90102 | 37879 ft | 518 kts | 164° |
| 2026-04-22 04:57 | 17.19226 | 7.93057 | 37880 ft | 518 kts | 164° |
| 2026-04-22 04:58 | 17.12636 | 7.95992 | 37879 ft | 517 kts | 164° |
| 2026-04-22 04:58 | 17.06020 | 7.98935 | 37879 ft | 517 kts | 163° |
| 2026-04-22 04:59 | 16.99378 | 8.01780 | 37872 ft | 511 kts | 169° |
| 2026-04-22 04:59 | 16.92526 | 8.03184 | 37882 ft | 496 kts | 180° |
| 2026-04-22 05:00 | 16.85687 | 8.03909 | 37872 ft | 493 kts | 182° |
| 2026-04-22 05:00 | 16.78859 | 8.04531 | 37878 ft | 493 kts | 182° |
| 2026-04-22 05:01 | 16.72059 | 8.05159 | 37884 ft | 493 kts | 182° |
| 2026-04-22 05:01 | 16.65180 | 8.05814 | 37879 ft | 494 kts | 181° |
| 2026-04-22 05:02 | 16.58371 | 8.06470 | 37879 ft | 494 kts | 181° |
| 2026-04-22 05:02 | 16.51529 | 8.07131 | 37876 ft | 494 kts | 181° |
| 2026-04-22 05:03 | 16.44682 | 8.07791 | 37881 ft | 494 kts | 181° |
| 2026-04-22 05:03 | 16.37832 | 8.08449 | 37880 ft | 494 kts | 181° |
| 2026-04-22 05:04 | 16.30980 | 8.09108 | 37880 ft | 494 kts | 181° |
| 2026-04-22 05:04 | 16.24121 | 8.09766 | 37878 ft | 494 kts | 181° |
| 2026-04-22 05:05 | 16.17264 | 8.10424 | 37879 ft | 494 kts | 181° |
| 2026-04-22 05:05 | 16.10456 | 8.11076 | 37884 ft | 494 kts | 181° |
| 2026-04-22 05:06 | 16.03595 | 8.11733 | 37881 ft | 495 kts | 181° |
| 2026-04-22 05:06 | 15.96734 | 8.12390 | 37882 ft | 495 kts | 181° |
| 2026-04-22 05:07 | 15.89869 | 8.13047 | 37880 ft | 495 kts | 181° |
| 2026-04-22 05:07 | 15.83043 | 8.13699 | 37881 ft | 495 kts | 181° |
| 2026-04-22 05:08 | 15.76181 | 8.14355 | 37885 ft | 496 kts | 181° |
| 2026-04-22 05:08 | 15.69309 | 8.15011 | 37884 ft | 496 kts | 181° |
| 2026-04-22 05:09 | 15.62421 | 8.15668 | 37885 ft | 496 kts | 181° |
| 2026-04-22 05:09 | 15.55537 | 8.16325 | 37876 ft | 497 kts | 181° |
| 2026-04-22 05:10 | 15.48640 | 8.16982 | 37880 ft | 497 kts | 180° |
| 2026-04-22 05:10 | 15.41786 | 8.17635 | 37877 ft | 497 kts | 180° |
| 2026-04-22 05:11 | 15.34891 | 8.18291 | 37876 ft | 498 kts | 180° |
| 2026-04-22 05:11 | 15.27995 | 8.18946 | 37876 ft | 498 kts | 180° |
| 2026-04-22 05:12 | 15.21089 | 8.19602 | 37875 ft | 498 kts | 180° |
| 2026-04-22 05:12 | 15.14174 | 8.20259 | 37876 ft | 498 kts | 180° |
| 2026-04-22 05:13 | 15.07264 | 8.20914 | 37868 ft | 499 kts | 180° |
| 2026-04-22 05:13 | 15.00354 | 8.21569 | 37871 ft | 499 kts | 180° |
| 2026-04-22 05:14 | 14.93432 | 8.22226 | 37870 ft | 499 kts | 180° |
| 2026-04-22 05:14 | 14.86520 | 8.22881 | 37871 ft | 499 kts | 180° |
| 2026-04-22 05:15 | 14.79610 | 8.23535 | 37870 ft | 499 kts | 180° |
| 2026-04-22 05:15 | 14.72739 | 8.24185 | 37867 ft | 499 kts | 180° |
| 2026-04-22 05:16 | 14.65825 | 8.24838 | 37867 ft | 498 kts | 180° |
| 2026-04-22 05:16 | 14.58912 | 8.25491 | 37866 ft | 498 kts | 180° |
| 2026-04-22 05:17 | 14.52002 | 8.26145 | 37863 ft | 498 kts | 180° |
| 2026-04-22 05:17 | 14.45095 | 8.26796 | 37865 ft | 498 kts | 179° |
| 2026-04-22 05:18 | 14.34788 | 8.27768 | 37863 ft | 498 kts | 179° |
| 2026-04-22 05:18 | 14.27890 | 8.28417 | 37867 ft | 498 kts | 179° |
| 2026-04-22 05:19 | 14.20978 | 8.29068 | 37867 ft | 498 kts | 179° |
| 2026-04-22 05:19 | 14.14069 | 8.29718 | 37864 ft | 498 kts | 179° |
| 2026-04-22 05:20 | 14.07204 | 8.30363 | 37859 ft | 498 kts | 179° |
| 2026-04-22 05:20 | 14.00292 | 8.31011 | 37864 ft | 498 kts | 179° |
| 2026-04-22 05:21 | 13.93386 | 8.31661 | 37864 ft | 499 kts | 179° |
| 2026-04-22 05:21 | 13.86471 | 8.32310 | 37864 ft | 499 kts | 179° |
| 2026-04-22 05:22 | 13.79561 | 8.32959 | 37865 ft | 498 kts | 179° |
| 2026-04-22 05:22 | 13.72651 | 8.33608 | 37861 ft | 498 kts | 179° |
| 2026-04-22 05:23 | 13.65744 | 8.34254 | 37862 ft | 498 kts | 178° |
| 2026-04-22 05:23 | 13.58839 | 8.34901 | 37862 ft | 498 kts | 178° |
| 2026-04-22 05:24 | 13.51940 | 8.35546 | 37859 ft | 498 kts | 178° |
| 2026-04-22 05:24 | 13.45038 | 8.36192 | 37860 ft | 498 kts | 178° |
| 2026-04-22 05:25 | 13.38173 | 8.36833 | 37860 ft | 498 kts | 178° |
| 2026-04-22 05:25 | 13.31262 | 8.37478 | 37864 ft | 498 kts | 178° |
| 2026-04-22 05:26 | 13.24357 | 8.38123 | 37860 ft | 498 kts | 178° |
| 2026-04-22 05:26 | 13.17460 | 8.38768 | 37861 ft | 498 kts | 178° |
| 2026-04-22 05:27 | 13.10559 | 8.39412 | 37861 ft | 498 kts | 178° |
| 2026-04-22 05:27 | 13.03637 | 8.40068 | 37861 ft | 498 kts | 178° |
| 2026-04-22 05:28 | 12.96779 | 8.40755 | 37863 ft | 498 kts | 177° |
| 2026-04-22 05:28 | 12.89881 | 8.41448 | 37864 ft | 499 kts | 177° |
| 2026-04-22 05:29 | 12.82972 | 8.42137 | 37863 ft | 499 kts | 177° |
| 2026-04-22 05:29 | 12.76064 | 8.42825 | 37865 ft | 499 kts | 177° |
| 2026-04-22 05:30 | 12.69147 | 8.43511 | 37860 ft | 499 kts | 177° |
| 2026-04-22 05:30 | 12.63396 | 8.44076 | 37862 ft | 499 kts | 177° |
| 2026-04-22 05:31 | 12.55308 | 8.44874 | 37862 ft | 499 kts | 177° |
| 2026-04-22 05:31 | 12.49560 | 8.45441 | 37862 ft | 499 kts | 177° |
| 2026-04-22 05:32 | 12.42638 | 8.46124 | 37862 ft | 499 kts | 177° |
| 2026-04-22 05:32 | 12.35712 | 8.46808 | 37861 ft | 499 kts | 177° |
| 2026-04-22 05:33 | 12.28791 | 8.47491 | 37864 ft | 499 kts | 177° |
| 2026-04-22 05:33 | 12.21913 | 8.48169 | 37862 ft | 499 kts | 177° |
| 2026-04-22 05:34 | 12.15000 | 8.48851 | 37865 ft | 499 kts | 177° |
| 2026-04-22 05:34 | 12.08087 | 8.49532 | 37862 ft | 499 kts | 177° |
| 2026-04-22 05:35 | 12.01179 | 8.50224 | 37869 ft | 499 kts | 176° |
| 2026-04-22 05:35 | 11.94270 | 8.51113 | 37867 ft | 499 kts | 174° |
| 2026-04-22 05:36 | 11.87382 | 8.52069 | 37868 ft | 499 kts | 174° |
| 2026-04-22 05:36 | 11.80536 | 8.52990 | 37865 ft | 499 kts | 175° |
| 2026-04-22 05:37 | 11.73637 | 8.53897 | 37872 ft | 498 kts | 175° |
| 2026-04-22 05:37 | 11.66757 | 8.54793 | 37869 ft | 498 kts | 175° |
| 2026-04-22 05:38 | 11.59880 | 8.55688 | 37871 ft | 498 kts | 175° |
| 2026-04-22 05:38 | 11.53014 | 8.56584 | 37877 ft | 497 kts | 175° |
| 2026-04-22 05:39 | 11.46143 | 8.57479 | 37872 ft | 497 kts | 175° |
| 2026-04-22 05:39 | 11.39310 | 8.58369 | 37883 ft | 497 kts | 175° |
| 2026-04-22 05:40 | 11.32447 | 8.59264 | 37885 ft | 497 kts | 175° |
| 2026-04-22 05:40 | 11.25584 | 8.60157 | 37878 ft | 497 kts | 175° |
| 2026-04-22 05:41 | 11.18732 | 8.61048 | 37889 ft | 496 kts | 175° |
| 2026-04-22 05:41 | 11.11877 | 8.61939 | 37898 ft | 496 kts | 175° |
| 2026-04-22 05:42 | 11.05027 | 8.62829 | 37892 ft | 496 kts | 175° |
| 2026-04-22 05:42 | 10.98174 | 8.63720 | 37904 ft | 496 kts | 174° |
| 2026-04-22 05:43 | 10.91365 | 8.64604 | 37911 ft | 496 kts | 174° |
| 2026-04-22 05:43 | 10.84513 | 8.65493 | 37909 ft | 496 kts | 174° |
| 2026-04-22 05:44 | 10.77651 | 8.66384 | 37908 ft | 496 kts | 174° |
| 2026-04-22 05:44 | 10.70800 | 8.67273 | 37917 ft | 496 kts | 174° |
| 2026-04-22 05:45 | 10.63936 | 8.68163 | 37920 ft | 497 kts | 174° |
| 2026-04-22 05:45 | 10.57071 | 8.69052 | 37913 ft | 497 kts | 174° |
| 2026-04-22 05:46 | 10.50197 | 8.69942 | 37913 ft | 498 kts | 174° |
| 2026-04-22 05:46 | 10.43320 | 8.70833 | 37911 ft | 498 kts | 174° |
| 2026-04-22 05:47 | 10.36483 | 8.71718 | 37913 ft | 498 kts | 174° |
| 2026-04-22 05:47 | 10.29609 | 8.72608 | 37923 ft | 498 kts | 174° |
| 2026-04-22 05:48 | 10.22720 | 8.73499 | 37924 ft | 499 kts | 174° |
| 2026-04-22 05:48 | 10.15829 | 8.74389 | 37927 ft | 499 kts | 174° |
| 2026-04-22 05:49 | 10.08944 | 8.75278 | 37917 ft | 499 kts | 174° |
| 2026-04-22 05:49 | 10.02048 | 8.76169 | 37930 ft | 499 kts | 173° |
| 2026-04-22 05:50 | 9.95153 | 8.77060 | 37926 ft | 499 kts | 173° |
| 2026-04-22 05:50 | 9.88264 | 8.77950 | 37937 ft | 499 kts | 173° |
| 2026-04-22 05:51 | 9.81374 | 8.78837 | 37931 ft | 499 kts | 173° |
| 2026-04-22 05:51 | 9.74519 | 8.79720 | 37931 ft | 499 kts | 173° |
| 2026-04-22 05:52 | 9.67635 | 8.80606 | 37932 ft | 498 kts | 173° |
| 2026-04-22 05:52 | 9.60751 | 8.81493 | 37932 ft | 498 kts | 173° |
| 2026-04-22 05:53 | 9.53867 | 8.82380 | 37933 ft | 498 kts | 173° |
| 2026-04-22 05:53 | 9.47000 | 8.83264 | 37928 ft | 498 kts | 173° |
| 2026-04-22 05:54 | 9.40126 | 8.84149 | 37931 ft | 497 kts | 173° |
| 2026-04-22 05:54 | 9.33283 | 8.85032 | 37927 ft | 496 kts | 172° |
| 2026-04-22 05:55 | 9.26490 | 8.85906 | 37919 ft | 495 kts | 172° |
| 2026-04-22 05:55 | 9.19651 | 8.86784 | 37910 ft | 494 kts | 172° |
| 2026-04-22 05:56 | 9.12838 | 8.87659 | 37899 ft | 493 kts | 172° |
| 2026-04-22 05:56 | 9.06045 | 8.88531 | 37889 ft | 492 kts | 172° |
| 2026-04-22 05:57 | 8.99247 | 8.89403 | 37879 ft | 492 kts | 172° |
| 2026-04-22 05:57 | 8.92495 | 8.90269 | 37872 ft | 491 kts | 172° |
| 2026-04-22 05:58 | 8.85710 | 8.91139 | 37860 ft | 491 kts | 173° |
| 2026-04-22 05:58 | 8.78938 | 8.92006 | 37858 ft | 490 kts | 173° |
| 2026-04-22 05:59 | 8.72166 | 8.92874 | 37850 ft | 490 kts | 173° |
| 2026-04-22 05:59 | 8.65452 | 8.93733 | 37850 ft | 489 kts | 173° |
| 2026-04-22 06:00 | 8.58694 | 8.94599 | 37854 ft | 489 kts | 173° |
| 2026-04-22 06:00 | 8.51950 | 8.95462 | 37853 ft | 488 kts | 173° |
| 2026-04-22 06:01 | 8.45209 | 8.96324 | 37854 ft | 488 kts | 173° |
| 2026-04-22 06:01 | 8.38472 | 8.97186 | 37850 ft | 488 kts | 173° |
| 2026-04-22 06:02 | 8.31742 | 8.98047 | 37852 ft | 487 kts | 173° |
| 2026-04-22 06:02 | 8.25051 | 8.98902 | 37853 ft | 487 kts | 172° |
| 2026-04-22 06:03 | 8.18322 | 8.99763 | 37851 ft | 487 kts | 172° |
| 2026-04-22 06:03 | 8.11598 | 9.00621 | 37853 ft | 487 kts | 172° |
| 2026-04-22 06:04 | 8.04873 | 9.01480 | 37851 ft | 487 kts | 172° |
| 2026-04-22 06:04 | 7.98149 | 9.02338 | 37847 ft | 487 kts | 172° |
| 2026-04-22 06:05 | 7.91431 | 9.03195 | 37852 ft | 486 kts | 172° |
| 2026-04-22 06:05 | 7.84751 | 9.04046 | 37852 ft | 486 kts | 172° |
| 2026-04-22 06:06 | 7.78040 | 9.04902 | 37851 ft | 486 kts | 172° |
| 2026-04-22 06:06 | 7.71316 | 9.05760 | 37851 ft | 486 kts | 172° |
| 2026-04-22 06:07 | 7.64605 | 9.06616 | 37851 ft | 486 kts | 172° |
| 2026-04-22 06:07 | 7.57897 | 9.07471 | 37850 ft | 485 kts | 172° |
| 2026-04-22 06:08 | 7.51197 | 9.08324 | 37851 ft | 485 kts | 172° |
| 2026-04-22 06:08 | 7.44537 | 9.09172 | 37850 ft | 485 kts | 172° |
| 2026-04-22 06:09 | 7.37841 | 9.10024 | 37854 ft | 485 kts | 172° |
| 2026-04-22 06:09 | 7.31147 | 9.10876 | 37856 ft | 485 kts | 172° |
| 2026-04-22 06:10 | 7.24454 | 9.11733 | 37858 ft | 484 kts | 171° |
| 2026-04-22 06:10 | 7.17767 | 9.12588 | 37854 ft | 484 kts | 171° |
| 2026-04-22 06:11 | 7.11066 | 9.13438 | 37858 ft | 484 kts | 171° |
| 2026-04-22 06:11 | 7.04377 | 9.14284 | 37857 ft | 484 kts | 171° |
| 2026-04-22 06:12 | 6.97693 | 9.15130 | 37857 ft | 484 kts | 171° |
| 2026-04-22 06:12 | 6.91049 | 9.15973 | 37859 ft | 484 kts | 171° |
| 2026-04-22 06:13 | 6.84354 | 9.16824 | 37860 ft | 485 kts | 171° |
| 2026-04-22 06:13 | 6.77654 | 9.17674 | 37863 ft | 485 kts | 171° |
| 2026-04-22 06:14 | 6.70963 | 9.18523 | 37864 ft | 484 kts | 171° |
| 2026-04-22 06:14 | 6.64277 | 9.19373 | 37870 ft | 484 kts | 171° |
| 2026-04-22 06:15 | 6.57588 | 9.20222 | 37871 ft | 484 kts | 171° |
| 2026-04-22 06:15 | 6.50898 | 9.21070 | 37876 ft | 484 kts | 171° |
| 2026-04-22 06:16 | 6.44261 | 9.21911 | 37876 ft | 484 kts | 171° |
| 2026-04-22 06:16 | 6.37582 | 9.22758 | 37879 ft | 483 kts | 171° |
| 2026-04-22 06:17 | 6.30898 | 9.23605 | 37876 ft | 483 kts | 171° |
| 2026-04-22 06:17 | 6.24224 | 9.24450 | 37878 ft | 483 kts | 171° |
| 2026-04-22 06:18 | 6.17565 | 9.25332 | 37882 ft | 482 kts | 168° |
| 2026-04-22 06:18 | 6.11037 | 9.26705 | 37880 ft | 482 kts | 166° |
| 2026-04-22 06:19 | 6.05548 | 9.27952 | 37878 ft | 482 kts | 165° |
| 2026-04-22 06:19 | 5.99036 | 9.29448 | 37878 ft | 483 kts | 165° |
| 2026-04-22 06:20 | 5.92479 | 9.30949 | 37875 ft | 483 kts | 165° |
| 2026-04-22 06:20 | 5.85929 | 9.32440 | 37873 ft | 482 kts | 165° |
| 2026-04-22 06:21 | 5.79379 | 9.33928 | 37874 ft | 482 kts | 165° |
| 2026-04-22 06:21 | 5.72832 | 9.35416 | 37872 ft | 482 kts | 165° |
| 2026-04-22 06:22 | 5.66280 | 9.36904 | 37873 ft | 482 kts | 165° |
| 2026-04-22 06:22 | 5.59736 | 9.38391 | 37875 ft | 482 kts | 165° |
| 2026-04-22 06:23 | 5.53192 | 9.39877 | 37873 ft | 482 kts | 165° |
| 2026-04-22 06:23 | 5.46642 | 9.41364 | 37875 ft | 482 kts | 165° |
| 2026-04-22 06:24 | 5.36865 | 9.43583 | 37882 ft | 482 kts | 165° |
| 2026-04-22 06:25 | 5.30321 | 9.45068 | 37882 ft | 482 kts | 165° |
| 2026-04-22 06:25 | 5.23777 | 9.46553 | 37888 ft | 482 kts | 165° |
| 2026-04-22 06:26 | 5.17231 | 9.48037 | 37896 ft | 482 kts | 165° |
| 2026-04-22 06:26 | 5.10695 | 9.49519 | 37894 ft | 482 kts | 165° |
| 2026-04-22 06:27 | 5.04135 | 9.51007 | 37896 ft | 482 kts | 165° |
| 2026-04-22 06:27 | 4.97595 | 9.52490 | 37895 ft | 482 kts | 165° |
| 2026-04-22 06:28 | 4.91052 | 9.53973 | 37900 ft | 482 kts | 165° |
| 2026-04-22 06:28 | 4.84561 | 9.55444 | 37891 ft | 481 kts | 165° |
| 2026-04-22 06:29 | 4.78014 | 9.56927 | 37889 ft | 481 kts | 165° |
| 2026-04-22 06:29 | 4.71486 | 9.58406 | 37878 ft | 481 kts | 165° |
| 2026-04-22 06:30 | 4.64949 | 9.59886 | 37873 ft | 481 kts | 165° |
| 2026-04-22 06:30 | 4.58428 | 9.61362 | 37868 ft | 481 kts | 165° |
| 2026-04-22 06:31 | 4.51899 | 9.62840 | 37860 ft | 480 kts | 165° |
| 2026-04-22 06:31 | 4.45409 | 9.64309 | 37860 ft | 481 kts | 165° |
| 2026-04-22 06:32 | 4.38875 | 9.65787 | 37855 ft | 481 kts | 165° |
| 2026-04-22 06:32 | 4.32354 | 9.67263 | 37851 ft | 480 kts | 165° |
| 2026-04-22 06:33 | 4.25824 | 9.68741 | 37841 ft | 480 kts | 165° |
| 2026-04-22 06:33 | 4.19303 | 9.70215 | 37834 ft | 480 kts | 165° |
| 2026-04-22 06:34 | 4.12786 | 9.71690 | 37831 ft | 480 kts | 165° |
| 2026-04-22 06:34 | 4.06262 | 9.73165 | 37827 ft | 481 kts | 165° |
| 2026-04-22 06:35 | 3.99779 | 9.74630 | 37825 ft | 481 kts | 165° |
| 2026-04-22 06:35 | 3.93256 | 9.76164 | 37829 ft | 481 kts | 164° |
| 2026-04-22 06:36 | 3.86756 | 9.77775 | 37831 ft | 481 kts | 164° |
| 2026-04-22 06:36 | 3.80243 | 9.79385 | 37839 ft | 481 kts | 164° |
| 2026-04-22 06:37 | 3.73733 | 9.80979 | 37832 ft | 482 kts | 164° |
| 2026-04-22 06:37 | 3.67219 | 9.82567 | 37834 ft | 482 kts | 164° |
| 2026-04-22 06:38 | 3.60701 | 9.84154 | 37833 ft | 482 kts | 164° |
| 2026-04-22 06:38 | 3.54229 | 9.85732 | 37837 ft | 482 kts | 164° |
| 2026-04-22 06:39 | 3.47701 | 9.87323 | 37836 ft | 482 kts | 164° |
| 2026-04-22 06:39 | 3.41183 | 9.88911 | 37841 ft | 482 kts | 164° |
| 2026-04-22 06:40 | 3.34667 | 9.90499 | 37836 ft | 482 kts | 164° |
| 2026-04-22 06:40 | 3.28153 | 9.92085 | 37837 ft | 482 kts | 164° |
| 2026-04-22 06:41 | 3.21626 | 9.93675 | 37837 ft | 482 kts | 164° |
| 2026-04-22 06:41 | 3.15118 | 9.95260 | 37845 ft | 482 kts | 164° |
| 2026-04-22 06:42 | 3.08601 | 9.96847 | 37842 ft | 482 kts | 164° |
| 2026-04-22 06:42 | 3.02125 | 9.98423 | 37842 ft | 482 kts | 164° |
| 2026-04-22 06:43 | 2.95603 | 10.00011 | 37846 ft | 482 kts | 164° |
| 2026-04-22 06:43 | 2.89085 | 10.01597 | 37850 ft | 482 kts | 164° |
| 2026-04-22 06:44 | 2.82561 | 10.03185 | 37845 ft | 482 kts | 164° |
| 2026-04-22 06:44 | 2.76040 | 10.04772 | 37850 ft | 482 kts | 164° |
| 2026-04-22 06:45 | 2.69517 | 10.06359 | 37858 ft | 482 kts | 164° |
| 2026-04-22 06:45 | 2.63037 | 10.07936 | 37854 ft | 482 kts | 164° |
| 2026-04-22 06:46 | 2.56522 | 10.09521 | 37855 ft | 482 kts | 164° |
| 2026-04-22 06:46 | 2.49996 | 10.11108 | 37856 ft | 482 kts | 164° |
| 2026-04-22 06:47 | 2.43473 | 10.12694 | 37859 ft | 482 kts | 164° |
| 2026-04-22 06:47 | 2.36944 | 10.14281 | 37857 ft | 483 kts | 164° |
| 2026-04-22 06:48 | 2.30411 | 10.15870 | 37864 ft | 484 kts | 164° |
| 2026-04-22 06:48 | 2.23903 | 10.17453 | 37862 ft | 484 kts | 164° |
| 2026-04-22 06:49 | 2.17344 | 10.19049 | 37870 ft | 485 kts | 164° |
| 2026-04-22 06:49 | 2.10769 | 10.20647 | 37869 ft | 485 kts | 164° |
| 2026-04-22 06:50 | 2.04203 | 10.22243 | 37881 ft | 486 kts | 164° |
| 2026-04-22 06:50 | 1.97666 | 10.23832 | 37880 ft | 486 kts | 164° |
| 2026-04-22 06:51 | 1.91076 | 10.25435 | 37884 ft | 487 kts | 164° |
| 2026-04-22 06:51 | 1.84475 | 10.27038 | 37886 ft | 488 kts | 164° |
| 2026-04-22 06:52 | 1.77859 | 10.28647 | 37889 ft | 489 kts | 164° |
| 2026-04-22 06:52 | 1.71230 | 10.30258 | 37891 ft | 490 kts | 164° |
| 2026-04-22 06:53 | 1.64597 | 10.31867 | 37890 ft | 491 kts | 164° |
| 2026-04-22 06:53 | 1.57958 | 10.33480 | 37901 ft | 491 kts | 164° |
| 2026-04-22 06:54 | 1.51311 | 10.35092 | 37899 ft | 491 kts | 164° |
| 2026-04-22 06:54 | 1.44715 | 10.36694 | 37904 ft | 491 kts | 164° |
| 2026-04-22 06:55 | 1.38078 | 10.38306 | 37902 ft | 491 kts | 164° |
| 2026-04-22 06:55 | 1.31441 | 10.39918 | 37905 ft | 491 kts | 164° |
| 2026-04-22 06:56 | 1.24806 | 10.41528 | 37907 ft | 490 kts | 164° |
| 2026-04-22 06:56 | 1.18173 | 10.43138 | 37905 ft | 490 kts | 164° |
| 2026-04-22 06:57 | 1.11544 | 10.44747 | 37910 ft | 490 kts | 164° |
| 2026-04-22 06:57 | 1.04965 | 10.46345 | 37906 ft | 489 kts | 164° |
| 2026-04-22 06:58 | 0.98352 | 10.47949 | 37907 ft | 489 kts | 164° |
| 2026-04-22 06:58 | 0.91748 | 10.49552 | 37911 ft | 488 kts | 164° |
| 2026-04-22 06:59 | 0.85156 | 10.51156 | 37911 ft | 487 kts | 164° |
| 2026-04-22 06:59 | 0.78572 | 10.52755 | 37911 ft | 487 kts | 164° |
| 2026-04-22 07:00 | 0.71978 | 10.54354 | 37909 ft | 487 kts | 164° |
| 2026-04-22 07:00 | 0.65379 | 10.55956 | 37907 ft | 488 kts | 164° |
| 2026-04-22 07:01 | 0.58819 | 10.57548 | 37912 ft | 488 kts | 164° |
| 2026-04-22 07:01 | 0.52211 | 10.59153 | 37905 ft | 489 kts | 164° |
| 2026-04-22 07:02 | 0.45591 | 10.60758 | 37903 ft | 489 kts | 164° |
| 2026-04-22 07:02 | 0.38971 | 10.62367 | 37899 ft | 490 kts | 164° |
| 2026-04-22 07:03 | 0.32345 | 10.63979 | 37902 ft | 490 kts | 164° |
| 2026-04-22 07:03 | 0.25713 | 10.65591 | 37898 ft | 490 kts | 164° |
| 2026-04-22 07:04 | 0.19083 | 10.67202 | 37900 ft | 490 kts | 164° |
| 2026-04-22 07:04 | 0.12457 | 10.68811 | 37893 ft | 490 kts | 164° |
| 2026-04-22 07:05 | 0.05870 | 10.70412 | 37890 ft | 490 kts | 164° |
| 2026-04-22 07:05 | -0.00744 | 10.72020 | 37903 ft | 489 kts | 164° |
| 2026-04-22 07:06 | -0.07363 | 10.73634 | 37905 ft | 489 kts | 164° |
| 2026-04-22 07:06 | -0.13993 | 10.75245 | 37908 ft | 490 kts | 164° |
| 2026-04-22 07:07 | -0.20629 | 10.76850 | 37902 ft | 491 kts | 164° |
| 2026-04-22 07:07 | -0.27285 | 10.78463 | 37906 ft | 492 kts | 164° |
| 2026-04-22 07:08 | -0.32819 | 10.79807 | 37905 ft | 492 kts | 164° |
| 2026-04-22 07:08 | -0.39487 | 10.81426 | 37907 ft | 493 kts | 164° |
| 2026-04-22 07:09 | -0.46157 | 10.83046 | 37909 ft | 493 kts | 164° |
| 2026-04-22 07:09 | -0.52830 | 10.84668 | 37911 ft | 493 kts | 164° |
| 2026-04-22 07:10 | -0.59505 | 10.86287 | 37913 ft | 493 kts | 164° |
| 2026-04-22 07:10 | -0.66172 | 10.87907 | 37915 ft | 493 kts | 164° |
| 2026-04-22 07:11 | -0.72850 | 10.89527 | 37913 ft | 493 kts | 164° |
| 2026-04-22 07:11 | -0.79468 | 10.91130 | 37915 ft | 492 kts | 164° |
| 2026-04-22 07:12 | -0.86135 | 10.92749 | 37917 ft | 492 kts | 164° |
| 2026-04-22 07:12 | -0.92791 | 10.94365 | 37917 ft | 492 kts | 164° |
| 2026-04-22 07:13 | -0.99445 | 10.95979 | 37918 ft | 492 kts | 164° |
| 2026-04-22 07:13 | -1.06100 | 10.97594 | 37921 ft | 492 kts | 164° |
| 2026-04-22 07:14 | -1.12743 | 10.99206 | 37924 ft | 491 kts | 164° |
| 2026-04-22 07:14 | -1.19390 | 11.00819 | 37922 ft | 491 kts | 164° |
| 2026-04-22 07:15 | -1.26037 | 11.02431 | 37928 ft | 491 kts | 163° |
| 2026-04-22 07:15 | -1.32632 | 11.04032 | 37926 ft | 491 kts | 163° |
| 2026-04-22 07:16 | -1.39277 | 11.05644 | 37931 ft | 491 kts | 163° |
| 2026-04-22 07:16 | -1.45918 | 11.07257 | 37932 ft | 491 kts | 163° |
| 2026-04-22 07:17 | -1.52566 | 11.08870 | 37928 ft | 491 kts | 163° |
| 2026-04-22 07:17 | -1.59212 | 11.10483 | 37931 ft | 491 kts | 163° |
| 2026-04-22 07:18 | -1.65862 | 11.12101 | 37929 ft | 491 kts | 163° |
| 2026-04-22 07:18 | -1.72509 | 11.13715 | 37929 ft | 491 kts | 163° |
| 2026-04-22 07:19 | -1.79157 | 11.15325 | 37938 ft | 492 kts | 163° |
| 2026-04-22 07:19 | -1.85765 | 11.16928 | 37927 ft | 491 kts | 163° |
| 2026-04-22 07:20 | -1.92408 | 11.18540 | 37927 ft | 491 kts | 163° |
| 2026-04-22 07:20 | -1.99046 | 11.20153 | 37924 ft | 490 kts | 163° |
| 2026-04-22 07:21 | -2.05677 | 11.21763 | 37924 ft | 490 kts | 163° |
| 2026-04-22 07:21 | -2.12303 | 11.23372 | 37924 ft | 490 kts | 163° |
| 2026-04-22 07:22 | -2.18927 | 11.24981 | 37924 ft | 490 kts | 163° |
| 2026-04-22 07:22 | -2.25556 | 11.26590 | 37923 ft | 490 kts | 163° |
| 2026-04-22 07:23 | -2.32185 | 11.28200 | 37925 ft | 490 kts | 163° |
| 2026-04-22 07:23 | -2.38818 | 11.29813 | 37924 ft | 490 kts | 163° |
| 2026-04-22 07:24 | -2.45462 | 11.31428 | 37927 ft | 490 kts | 163° |
| 2026-04-22 07:24 | -2.52046 | 11.33028 | 37929 ft | 490 kts | 163° |
| 2026-04-22 07:25 | -2.58743 | 11.34422 | 37930 ft | 493 kts | 168° |
| 2026-04-22 07:25 | -2.65522 | 11.35436 | 37928 ft | 492 kts | 169° |
| 2026-04-22 07:26 | -2.72320 | 11.36396 | 37931 ft | 493 kts | 169° |
| 2026-04-22 07:26 | -2.79113 | 11.37352 | 37931 ft | 493 kts | 169° |
| 2026-04-22 07:27 | -2.85906 | 11.38315 | 37927 ft | 493 kts | 169° |
| 2026-04-22 07:27 | -2.92710 | 11.39283 | 37928 ft | 494 kts | 169° |
| 2026-04-22 07:28 | -3.02871 | 11.40733 | 37925 ft | 494 kts | 169° |
| 2026-04-22 07:28 | -3.09683 | 11.41704 | 37924 ft | 494 kts | 169° |
| 2026-04-22 07:29 | -3.16494 | 11.42674 | 37923 ft | 494 kts | 169° |
| 2026-04-22 07:29 | -3.23306 | 11.43645 | 37927 ft | 494 kts | 169° |
| 2026-04-22 07:30 | -3.30118 | 11.44618 | 37922 ft | 494 kts | 169° |
| 2026-04-22 07:30 | -3.36924 | 11.45587 | 37919 ft | 494 kts | 169° |
| 2026-04-22 07:31 | -3.43700 | 11.46553 | 37918 ft | 494 kts | 169° |
| 2026-04-22 07:31 | -3.50510 | 11.47524 | 37912 ft | 494 kts | 169° |
| 2026-04-22 07:32 | -3.57317 | 11.48495 | 37913 ft | 494 kts | 169° |
| 2026-04-22 07:32 | -3.64134 | 11.49467 | 37913 ft | 494 kts | 169° |
| 2026-04-22 07:33 | -3.70949 | 11.50439 | 37910 ft | 494 kts | 169° |
| 2026-04-22 07:33 | -3.77757 | 11.51411 | 37905 ft | 494 kts | 169° |
| 2026-04-22 07:34 | -3.84567 | 11.52383 | 37900 ft | 495 kts | 169° |
| 2026-04-22 07:34 | -3.91383 | 11.53356 | 37900 ft | 495 kts | 169° |
| 2026-04-22 07:35 | -3.98166 | 11.54323 | 37888 ft | 496 kts | 169° |
| 2026-04-22 07:35 | -4.05002 | 11.55298 | 37888 ft | 496 kts | 169° |
| 2026-04-22 07:36 | -4.11842 | 11.56274 | 37889 ft | 497 kts | 169° |
| 2026-04-22 07:36 | -4.18694 | 11.57254 | 37882 ft | 497 kts | 169° |
| 2026-04-22 07:37 | -4.25547 | 11.58234 | 37882 ft | 498 kts | 169° |
| 2026-04-22 07:37 | -4.32402 | 11.59213 | 37884 ft | 498 kts | 169° |
| 2026-04-22 07:38 | -4.39285 | 11.60196 | 37878 ft | 499 kts | 169° |
| 2026-04-22 07:38 | -4.46168 | 11.61180 | 37878 ft | 500 kts | 169° |
| 2026-04-22 07:39 | -4.53017 | 11.62160 | 37877 ft | 501 kts | 169° |
| 2026-04-22 07:39 | -4.59925 | 11.63149 | 37877 ft | 502 kts | 169° |
| 2026-04-22 07:40 | -4.66843 | 11.64138 | 37878 ft | 502 kts | 169° |
| 2026-04-22 07:40 | -4.73763 | 11.65126 | 37876 ft | 502 kts | 169° |
| 2026-04-22 07:41 | -4.80680 | 11.66114 | 37877 ft | 502 kts | 169° |
| 2026-04-22 07:41 | -4.87604 | 11.67105 | 37880 ft | 503 kts | 169° |
| 2026-04-22 07:42 | -4.94536 | 11.68098 | 37878 ft | 503 kts | 169° |
| 2026-04-22 07:42 | -5.01473 | 11.69090 | 37880 ft | 503 kts | 169° |
| 2026-04-22 07:43 | -5.08406 | 11.70084 | 37883 ft | 503 kts | 169° |
| 2026-04-22 07:43 | -5.15094 | 11.71829 | 37875 ft | 498 kts | 156° |
| 2026-04-22 07:44 | -5.21555 | 11.74394 | 37883 ft | 500 kts | 154° |
| 2026-04-22 07:44 | -5.27980 | 11.77079 | 37884 ft | 500 kts | 154° |
| 2026-04-22 07:45 | -5.34411 | 11.79762 | 37884 ft | 500 kts | 154° |
| 2026-04-22 07:45 | -5.40852 | 11.82427 | 37885 ft | 500 kts | 154° |
| 2026-04-22 07:46 | -5.47301 | 11.85085 | 37885 ft | 500 kts | 154° |
| 2026-04-22 07:46 | -5.53730 | 11.87736 | 37884 ft | 499 kts | 154° |
| 2026-04-22 07:47 | -5.60155 | 11.90385 | 37884 ft | 499 kts | 154° |
| 2026-04-22 07:47 | -5.66566 | 11.93031 | 37887 ft | 498 kts | 154° |
| 2026-04-22 07:48 | -5.72964 | 11.95672 | 37885 ft | 496 kts | 154° |
| 2026-04-22 07:48 | -5.79311 | 11.98293 | 37890 ft | 495 kts | 154° |
| 2026-04-22 07:49 | -5.85676 | 12.00921 | 37891 ft | 494 kts | 154° |
| 2026-04-22 07:49 | -5.92044 | 12.03551 | 37888 ft | 494 kts | 154° |
| 2026-04-22 07:50 | -5.98390 | 12.06173 | 37894 ft | 493 kts | 154° |
| 2026-04-22 07:50 | -6.04734 | 12.08795 | 37896 ft | 492 kts | 154° |
| 2026-04-22 07:51 | -6.11063 | 12.11412 | 37898 ft | 492 kts | 154° |
| 2026-04-22 07:51 | -6.17390 | 12.14028 | 37898 ft | 491 kts | 154° |
| 2026-04-22 07:52 | -6.23719 | 12.16645 | 37900 ft | 491 kts | 154° |
| 2026-04-22 07:52 | -6.29998 | 12.19243 | 37898 ft | 491 kts | 154° |
| 2026-04-22 07:53 | -6.36316 | 12.21859 | 37897 ft | 491 kts | 154° |
| 2026-04-22 07:53 | -6.42649 | 12.24480 | 37903 ft | 492 kts | 154° |
| 2026-04-22 07:54 | -6.48988 | 12.27104 | 37900 ft | 493 kts | 154° |
| 2026-04-22 07:54 | -6.55332 | 12.29731 | 37902 ft | 493 kts | 154° |
| 2026-04-22 07:55 | -6.60613 | 12.31918 | 37902 ft | 494 kts | 154° |
| 2026-04-22 07:55 | -6.66973 | 12.34554 | 37903 ft | 494 kts | 154° |
| 2026-04-22 07:56 | -6.73337 | 12.37192 | 37900 ft | 494 kts | 154° |
| 2026-04-22 07:56 | -6.79694 | 12.39827 | 37901 ft | 494 kts | 154° |
| 2026-04-22 07:57 | -6.86052 | 12.42463 | 37902 ft | 494 kts | 154° |
| 2026-04-22 07:57 | -6.92410 | 12.45100 | 37902 ft | 494 kts | 154° |
| 2026-04-22 07:58 | -6.98681 | 12.47816 | 37912 ft | 492 kts | 147° |
| 2026-04-22 07:58 | -7.04610 | 12.51310 | 37901 ft | 491 kts | 145° |
| 2026-04-22 07:59 | -7.10410 | 12.54877 | 37903 ft | 491 kts | 144° |
| 2026-04-22 07:59 | -7.16218 | 12.58498 | 37678 ft | 489 kts | 144° |
| 2026-04-22 08:00 | -7.19097 | 12.60300 | 37227 ft | 483 kts | 144° |
| 2026-04-22 08:00 | -7.21940 | 12.62081 | 36602 ft | 481 kts | 144° |
| 2026-04-22 08:00 | -7.24789 | 12.63870 | 35873 ft | 482 kts | 144° |
| 2026-04-22 08:00 | -7.27635 | 12.65659 | 35147 ft | 483 kts | 144° |
| 2026-04-22 08:01 | -7.30494 | 12.67459 | 34348 ft | 485 kts | 144° |
| 2026-04-22 08:01 | -7.33329 | 12.69246 | 33465 ft | 489 kts | 145° |
| 2026-04-22 08:01 | -7.36260 | 12.71091 | 32531 ft | 491 kts | 145° |
| 2026-04-22 08:01 | -7.39125 | 12.72892 | 31659 ft | 493 kts | 146° |
| 2026-04-22 08:02 | -7.42075 | 12.74743 | 30811 ft | 493 kts | 146° |
| 2026-04-22 08:02 | -7.44939 | 12.76536 | 30218 ft | 488 kts | 147° |
| 2026-04-22 08:02 | -7.47803 | 12.78332 | 29549 ft | 483 kts | 147° |
| 2026-04-22 08:02 | -7.50645 | 12.80112 | 28902 ft | 477 kts | 147° |
| 2026-04-22 08:03 | -7.53448 | 12.81870 | 28284 ft | 472 kts | 146° |
| 2026-04-22 08:03 | -7.56217 | 12.83609 | 27678 ft | 467 kts | 146° |
| 2026-04-22 08:03 | -7.58956 | 12.85330 | 27068 ft | 462 kts | 146° |
| 2026-04-22 08:03 | -7.61673 | 12.87037 | 26477 ft | 457 kts | 146° |
| 2026-04-22 08:04 | -7.64360 | 12.88727 | 25891 ft | 453 kts | 146° |
| 2026-04-22 08:04 | -7.67027 | 12.90405 | 25287 ft | 450 kts | 146° |
| 2026-04-22 08:04 | -7.69673 | 12.92069 | 24702 ft | 446 kts | 145° |
| 2026-04-22 08:04 | -7.72299 | 12.93721 | 24107 ft | 443 kts | 145° |
| 2026-04-22 08:05 | -7.74910 | 12.95364 | 23509 ft | 441 kts | 145° |
| 2026-04-22 08:05 | -7.77498 | 12.96993 | 22837 ft | 438 kts | 145° |
| 2026-04-22 08:05 | -7.80075 | 12.98615 | 22206 ft | 433 kts | 145° |
| 2026-04-22 08:05 | -7.82583 | 13.00194 | 21637 ft | 429 kts | 145° |
| 2026-04-22 08:06 | -7.85100 | 13.01778 | 21030 ft | 424 kts | 145° |
| 2026-04-22 08:06 | -7.87593 | 13.03348 | 20425 ft | 420 kts | 145° |
| 2026-04-22 08:06 | -7.90064 | 13.04905 | 19834 ft | 417 kts | 145° |
| 2026-04-22 08:06 | -7.92513 | 13.06447 | 19224 ft | 414 kts | 145° |
| 2026-04-22 08:07 | -7.94950 | 13.07982 | 18631 ft | 411 kts | 145° |
| 2026-04-22 08:07 | -7.97366 | 13.09504 | 18003 ft | 408 kts | 145° |
| 2026-04-22 08:07 | -7.99766 | 13.11015 | 17356 ft | 405 kts | 145° |
| 2026-04-22 08:07 | -8.02147 | 13.12514 | 16745 ft | 400 kts | 145° |
| 2026-04-22 08:08 | -8.04493 | 13.13993 | 16164 ft | 396 kts | 145° |
| 2026-04-22 08:08 | -8.06818 | 13.15458 | 15570 ft | 392 kts | 145° |
| 2026-04-22 08:08 | -8.09122 | 13.16911 | 14986 ft | 388 kts | 145° |
| 2026-04-22 08:08 | -8.11399 | 13.18348 | 14407 ft | 385 kts | 145° |
| 2026-04-22 08:09 | -8.13658 | 13.19773 | 13828 ft | 382 kts | 145° |
| 2026-04-22 08:09 | -8.15904 | 13.21190 | 13190 ft | 378 kts | 145° |
| 2026-04-22 08:09 | -8.18123 | 13.22589 | 12607 ft | 374 kts | 145° |
| 2026-04-22 08:09 | -8.20313 | 13.23971 | 12040 ft | 369 kts | 145° |
| 2026-04-22 08:10 | -8.22474 | 13.25334 | 11491 ft | 364 kts | 145° |
| 2026-04-22 08:10 | -8.24599 | 13.26674 | 11090 ft | 355 kts | 145° |
| 2026-04-22 08:10 | -8.26613 | 13.27943 | 10948 ft | 330 kts | 144° |
| 2026-04-22 08:10 | -8.28466 | 13.29108 | 10809 ft | 298 kts | 144° |
| 2026-04-22 08:11 | -8.30170 | 13.30175 | 10699 ft | 284 kts | 144° |
| 2026-04-22 08:11 | -8.31835 | 13.31220 | 10388 ft | 282 kts | 144° |
| 2026-04-22 08:11 | -8.33528 | 13.32291 | 9782 ft | 291 kts | 144° |
| 2026-04-22 08:11 | -8.35252 | 13.33382 | 9289 ft | 292 kts | 144° |
| 2026-04-22 08:12 | -8.36974 | 13.34472 | 8858 ft | 291 kts | 144° |
| 2026-04-22 08:12 | -8.38686 | 13.35556 | 8443 ft | 290 kts | 144° |
| 2026-04-22 08:12 | -8.40391 | 13.36634 | 8040 ft | 288 kts | 144° |
| 2026-04-22 08:12 | -8.42083 | 13.37704 | 7641 ft | 286 kts | 144° |
| 2026-04-22 08:13 | -8.43767 | 13.38769 | 7228 ft | 284 kts | 144° |
| 2026-04-22 08:13 | -8.45439 | 13.39825 | 6855 ft | 282 kts | 144° |
| 2026-04-22 08:13 | -8.47080 | 13.40863 | 6476 ft | 281 kts | 144° |
| 2026-04-22 08:13 | -8.48731 | 13.41906 | 6102 ft | 279 kts | 144° |
| 2026-04-22 08:14 | -8.50373 | 13.42945 | 5706 ft | 277 kts | 144° |
| 2026-04-22 08:14 | -8.52002 | 13.43976 | 5312 ft | 276 kts | 144° |
| 2026-04-22 08:14 | -8.53622 | 13.45002 | 5065 ft | 274 kts | 144° |
| 2026-04-22 08:14 | -8.55207 | 13.46000 | 5004 ft | 256 kts | 144° |
| 2026-04-22 08:15 | -8.56640 | 13.46892 | 5009 ft | 231 kts | 144° |
| 2026-04-22 08:15 | -8.57994 | 13.47732 | 5028 ft | 228 kts | 144° |
| 2026-04-22 08:15 | -8.59348 | 13.48552 | 5009 ft | 227 kts | 148° |
| 2026-04-22 08:15 | -8.60877 | 13.49009 | 4711 ft | 236 kts | 176° |
| 2026-04-22 08:16 | -8.62438 | 13.48566 | 4456 ft | 236 kts | 211° |
| 2026-04-22 08:16 | -8.63625 | 13.47454 | 4271 ft | 231 kts | 226° |
| 2026-04-22 08:16 | -8.64660 | 13.46224 | 4026 ft | 228 kts | 226° |
| 2026-04-22 08:16 | -8.65720 | 13.45036 | 3753 ft | 226 kts | 224° |
| 2026-04-22 08:17 | -8.66807 | 13.43892 | 3476 ft | 225 kts | 223° |
| 2026-04-22 08:17 | -8.67897 | 13.42764 | 3237 ft | 224 kts | 223° |
| 2026-04-22 08:17 | -8.68974 | 13.41636 | 3051 ft | 222 kts | 223° |
| 2026-04-22 08:17 | -8.70036 | 13.40499 | 3009 ft | 222 kts | 224° |
| 2026-04-22 08:18 | -8.71053 | 13.39391 | 2995 ft | 212 kts | 224° |
| 2026-04-22 08:18 | -8.72004 | 13.38337 | 3017 ft | 194 kts | 224° |
| 2026-04-22 08:18 | -8.72873 | 13.37370 | 3006 ft | 179 kts | 224° |
| 2026-04-22 08:18 | -8.73672 | 13.36484 | 2999 ft | 164 kts | 223° |
| 2026-04-22 08:19 | -8.74438 | 13.35648 | 3001 ft | 161 kts | 223° |
| 2026-04-22 08:19 | -8.75200 | 13.34842 | 2995 ft | 156 kts | 223° |
| 2026-04-22 08:19 | -8.75925 | 13.34041 | 2883 ft | 152 kts | 224° |
| 2026-04-22 08:19 | -8.76642 | 13.33266 | 2679 ft | 149 kts | 222° |
| 2026-04-22 08:20 | -8.77335 | 13.32518 | 2481 ft | 143 kts | 222° |
| 2026-04-22 08:20 | -8.78005 | 13.31797 | 2311 ft | 139 kts | 222° |
| 2026-04-22 08:20 | -8.78663 | 13.31090 | 2124 ft | 138 kts | 222° |
| 2026-04-22 08:20 | -8.79323 | 13.30379 | 1952 ft | 139 kts | 223° |
| 2026-04-22 08:21 | -8.79984 | 13.29668 | 1751 ft | 138 kts | 221° |
| 2026-04-22 08:21 | -8.80636 | 13.28966 | 1609 ft | 137 kts | 221° |
| 2026-04-22 08:21 | -8.81283 | 13.28269 | 1396 ft | 134 kts | 222° |
| 2026-04-22 08:21 | -8.81921 | 13.27581 | 1214 ft | 134 kts | 222° |
| 2026-04-22 08:22 | -8.82553 | 13.26899 | 1055 ft | 133 kts | 221° |
| 2026-04-22 08:22 | -8.83180 | 13.26221 | 872 ft | 132 kts | 225° |
| 2026-04-22 08:22 | -8.83796 | 13.25539 | 722 ft | 135 kts | 223° |
| 2026-04-22 08:22 | -8.84454 | 13.24850 | 528 ft | 138 kts | 218° |
| 2026-04-22 08:23 | -8.85107 | 13.24150 | 383 ft | 137 kts | 221° |
| 2026-04-22 08:23 | -8.85756 | 13.23442 | 269 ft | 134 kts | 218° |
| 2026-04-22 08:23 | -8.86307 | 13.22856 | 265 ft | 86 kts | 227° |
| 2026-04-22 08:23 | -8.86673 | 13.22467 | 266 ft | 81 kts | 226° |
| 2026-04-22 08:24 | -8.86956 | 13.22165 | 264 ft | 25 kts | 226° |
| 2026-04-22 08:24 | -8.87078 | 13.22034 | 264 ft | 26 kts | 227° |
| 2026-04-22 08:24 | -8.87225 | 13.21882 | 265 ft | 34 kts | 226° |
| 2026-04-22 08:24 | -8.87403 | 13.21688 | 265 ft | 40 kts | 227° |
| 2026-04-22 08:25 | -8.87574 | 13.21504 | 265 ft | 14 kts | 226° |
| 2026-04-22 08:25 | -8.87615 | 13.21460 | 265 ft | 12 kts | 227° |
| 2026-04-22 08:25 | -8.87639 | 13.21366 | 264 ft | 15 kts | 294° |
| 2026-04-22 08:25 | -8.87589 | 13.21352 | 265 ft | 7 kts | 22° |
| 2026-04-22 08:26 | -8.87546 | 13.21385 | 265 ft | 9 kts | 43° |
| 2026-04-22 08:26 | -8.87517 | 13.21455 | 265 ft | 12 kts | 88° |
| 2026-04-22 08:26 | -8.87512 | 13.21546 | 266 ft | 14 kts | 77° |
| 2026-04-22 08:26 | -8.87451 | 13.21639 | 266 ft | 19 kts | 47° |
| 2026-04-22 08:27 | -8.87334 | 13.21763 | 265 ft | 29 kts | 47° |
| 2026-04-22 08:27 | -8.87176 | 13.21931 | 264 ft | 37 kts | 46° |
| 2026-04-22 08:27 | -8.86988 | 13.22132 | 264 ft | 39 kts | 46° |
| 2026-04-22 08:27 | -8.86805 | 13.22328 | 265 ft | 37 kts | 47° |
| 2026-04-22 08:28 | -8.86632 | 13.22512 | 266 ft | 35 kts | 46° |
| 2026-04-22 08:28 | -8.86530 | 13.22621 | 266 ft | 5 kts | 46° |
| 2026-04-22 08:28 | -8.86484 | 13.22661 | 266 ft | 12 kts | 32° |
| 2026-04-22 08:28 | -8.86390 | 13.22680 | 265 ft | 15 kts | 2° |
| 2026-04-22 08:29 | -8.86278 | 13.22686 | 265 ft | 17 kts | 7° |
| 2026-04-22 08:29 | -8.86178 | 13.22749 | 265 ft | 18 kts | 46° |
| 2026-04-22 08:29 | -8.86086 | 13.22847 | 265 ft | 20 kts | 47° |
| 2026-04-22 08:29 | -8.85986 | 13.22956 | 265 ft | 22 kts | 47° |
| 2026-04-22 08:30 | -8.85889 | 13.23041 | 265 ft | 15 kts | 30° |
| 2026-04-22 08:30 | -8.85787 | 13.23061 | 265 ft | 15 kts | 2° |
| 2026-04-22 08:30 | -8.85697 | 13.23075 | 265 ft | 9 kts | 359° |
| 2026-04-22 08:30 | -8.85623 | 13.23066 | 266 ft | 12 kts | 353° |
| 2026-04-22 08:31 | -8.85534 | 13.23067 | 266 ft | 14 kts | 3° |
| 2026-04-22 08:31 | -8.85423 | 13.23073 | 266 ft | 17 kts | 2° |
| 2026-04-22 08:31 | -8.85204 | 13.23076 | 266 ft | 4 kts | 1° |
| 2026-04-22 08:32 | -8.85160 | 13.23081 | 266 ft | 8 kts | 14° |
| 2026-04-22 08:32 | -8.85108 | 13.23117 | 266 ft | 10 kts | 48° |
| 2026-04-22 08:32 | -8.85069 | 13.23183 | 266 ft | 12 kts | 65° |
| 2026-04-22 08:32 | -8.85042 | 13.23238 | 266 ft | 9 kts | 59° |
| 2026-04-22 08:33 | -8.85006 | 13.23302 | 266 ft | 12 kts | 65° |
| 2026-04-22 08:33 | -8.84970 | 13.23386 | 266 ft | 14 kts | 67° |
| 2026-04-22 08:33 | -8.84947 | 13.23455 | 266 ft | 9 kts | 86° |
| 2026-04-22 08:33 | -8.84976 | 13.23504 | 265 ft | 7 kts | 144° |
| 2026-04-22 08:34 | -8.85025 | 13.23535 | 265 ft | 8 kts | 135° |
| 2026-04-22 08:34 | -8.85035 | 13.23592 | 265 ft | 8 kts | 74° |
| 2026-04-22 08:34 | -8.85012 | 13.23658 | 265 ft | 12 kts | 69° |
| 2026-04-22 08:34 | -8.84976 | 13.23746 | 265 ft | 15 kts | 68° |
| 2026-04-22 08:35 | -8.84942 | 13.23830 | 265 ft | 9 kts | 68° |
| 2026-04-22 08:35 | -8.84920 | 13.23865 | 265 ft | 5 kts | 38° |
| 2026-04-22 08:35 | -8.84883 | 13.23864 | 265 ft | 6 kts | 331° |
| 2026-04-22 08:35 | -8.84853 | 13.23830 | 265 ft | 0 kts | 311° |